• Join FlightAware (Why Join?)
  • Login
  • US Flag 
01:24AM EDT


 

Airport Tracker/Info


-or-


 

Live Flight TrackerFlight Track Log ✈ AFL150 ✈ 17-Oct-2013 ✈ UUEE / SVO - MUHA / HAV

Flight Track Log - Related Links

Times and Time Zones

All times are in EDT time to prevent confusion due to time zone crossing. See the AFL150 flight status page for this flight to view local times or setup timezone preferences in your user account.

Time Position Orientation Groundspeed Altitude Reporting Facility
EDT Latitude Longitude Course Direction KTS MPH feet Rate Location/Type
06:20AM 55.9770 37.4530 75° East 173 199  Level FlightAware
06:20AM 55.9800 37.4740 76° East 175 201 3,960 Level FlightAware
06:21AM 55.9860 37.5010 68° East 176 203 6,000 Level FlightAware
06:21AM 55.9920 37.5110 43° Northeast 180 207 3,000 12,360 Climbing FlightAware
06:21AM 55.9950 37.5140 29° Northeast 180 207 3,100 1,200 Climbing FlightAware
06:21AM 56.0000 37.5150 North 180 207 3,200 1,440 Climbing FlightAware
06:21AM 56.0150 37.5050 340° North 186 214 3,700 1,380 Climbing FlightAware
06:21AM 56.0190 37.4920 299° West 186 214 3,900 1,200 Climbing FlightAware
06:22AM 56.0200 37.4760 276° West 191 220 4,100 780 Climbing FlightAware
06:22AM 56.0190 37.4420 267° West 213 245 4,300 1,020 Climbing FlightAware
06:22AM 56.0170 37.4060 264° West 231 266 4,800 1,320 Climbing FlightAware
06:22AM 56.0190 37.3750 277° West 249 287 5,100 1,440 Climbing FlightAware
06:23AM 56.0210 37.3550 280° West 255 293 5,400 2,700 Climbing FlightAware
06:23AM 56.0250 37.3030 278° West 250 288 6,700 2,520 Climbing FlightAware
06:23AM 56.0280 37.2630 278° West 260 299 7,300 2,220 Climbing FlightAware
06:24AM 56.0310 37.2200 277° West 263 303 8,200 2,700 Climbing FlightAware
06:24AM 56.0350 37.1760 279° West 264 304 9,100 2,520 Climbing FlightAware
06:24AM 56.0380 37.1320 277° West 267 307 9,900 1,800 Climbing FlightAware
06:25AM 56.0450 37.0420 278° West 293 337 10,900 1,560 Climbing FlightAware
06:26AM 56.0510 36.9540 277° West 313 360 11,900 2,160 Climbing FlightAware
06:26AM 56.0570 36.8770 278° West 311 358 13,300 2,460 Climbing FlightAware
06:27AM 56.0630 36.7870 277° West 316 364 14,600 2,220 Climbing FlightAware
06:27AM 56.0700 36.6950 278° West 321 369 15,900 2,040 Climbing FlightAware
06:28AM 56.0770 36.5890 277° West 329 379 17,200 1,920 Climbing FlightAware
06:28AM 56.0830 36.5070 278° West 333 383 18,200 1,920 Climbing FlightAware
06:29AM 56.0900 36.4100 277° West 339 390 19,300 1,920 Climbing FlightAware
06:30AM 56.0980 36.2980 277° West 344 396 20,600 1,800 Climbing FlightAware
06:30AM 56.1040 36.1990 276° West 348 400 21,600 1,620 Climbing FlightAware
06:31AM 56.1100 36.1120 277° West 353 406 22,400 1,620 Climbing FlightAware
06:31AM 56.1170 36.0100 277° West 358 412 23,400 1,500 Climbing FlightAware
06:32AM 56.1240 35.8910 276° West 365 420 24,300 1,320 Climbing FlightAware
06:33AM 56.1310 35.7860 277° West 369 425 25,100 1,380 Climbing FlightAware
06:33AM 56.1370 35.6960 277° West 373 429 25,800 1,320 Climbing FlightAware
06:34AM 56.1450 35.5710 277° West 377 434 26,700 1,260 Climbing FlightAware
06:34AM 56.1510 35.4760 277° West 381 438 27,300 1,080 Climbing FlightAware
06:35AM 56.1570 35.3650 276° West 386 444 27,900 1,020 Climbing FlightAware
06:36AM 56.1670 35.2390 278° West 390 449 28,600 1,080 Climbing FlightAware
06:36AM 56.1780 35.1430 282° West 392 451 29,200 1,080 Climbing FlightAware
06:37AM 56.1900 35.0330 281° West 394 453 29,800 960 Climbing FlightAware
06:37AM 56.2040 34.9030 281° West 398 458 30,400 960 Climbing FlightAware
06:38AM 56.2160 34.7920 281° West 400 460 31,000 900 Climbing FlightAware
06:38AM 56.2260 34.6920 280° West 402 463 31,400 780 Climbing FlightAware
06:39AM 56.2390 34.5770 282° West 403 464 31,900 780 Climbing FlightAware
06:40AM 56.2520 34.4460 280° West 406 467 32,400 720 Climbing FlightAware
06:40AM 56.2640 34.3290 281° West 410 472 32,800 600 Climbing FlightAware
06:41AM 56.2760 34.2140 281° West 415 478 33,100 540 Climbing FlightAware
06:41AM 56.2870 34.1090 281° West 419 482 33,400 600 Climbing FlightAware
06:42AM 56.2990 33.9880 280° West 422 486 33,800 480 Climbing FlightAware
06:43AM 56.3130 33.8480 280° West 429 494 34,000 120 Climbing FlightAware
06:43AM 56.3230 33.7420 280° West 433 498 34,000  Level FlightAware
06:44AM 56.3350 33.6220 280° West 432 497 34,000  Level FlightAware
06:44AM 56.3480 33.4830 280° West 429 494 34,000  Level FlightAware
06:45AM 56.3580 33.3740 279° West 429 494 34,000  Level FlightAware
06:45AM 56.3700 33.2500 280° West 428 493 34,000  Level FlightAware
06:46AM 56.3820 33.1260 280° West 427 491 34,000  Level FlightAware
06:47AM 56.3940 32.9860 279° West 428 493 34,000  Level FlightAware
06:47AM 56.4060 32.8620 280° West 428 493 34,000  Level FlightAware
06:48AM 56.4150 32.7580 279° West 429 494 34,000  Level FlightAware
06:48AM 56.4280 32.6150 279° West 428 493 34,000  Level FlightAware
06:49AM 56.4380 32.4940 279° West 428 493 34,000  Level FlightAware
06:49AM 56.4470 32.3950 279° West 427 491 34,000  Level FlightAware
06:50AM 56.4580 32.2690 279° West 427 491 34,000  Level FlightAware
06:51AM 56.4690 32.1290 278° West 425 489 34,000  Level FlightAware
06:51AM 56.4800 32.0010 279° West 425 489 34,000  Level FlightAware
06:52AM 56.4890 31.8880 278° West 425 489 34,000  Level FlightAware
06:53AM 56.4980 31.7740 278° West 425 489 34,000  Level FlightAware
06:53AM 56.5060 31.6660 278° West 425 489 34,000  Level FlightAware
06:54AM 56.5150 31.5550 278° West 425 489 34,000  Level FlightAware
06:54AM 56.5320 31.3540 279° West 417 480 34,000  Level FlightAware
06:55AM 56.5410 31.2250 277° West 417 480 34,000  Level FlightAware
06:56AM 56.5480 31.1190 277° West 417 480 34,000  Level FlightAware
06:56AM 56.5330 31.3380 97° East 34,000  Level FlightAware
06:57AM 56.6250 30.9200 292° West 414 476 34,000  Level FlightAware
06:57AM 56.6610 30.8390 309° West 413 475 34,000  Level FlightAware
06:58AM 56.6990 30.7600 311° West 412 474 34,000  Level FlightAware
06:58AM 56.7410 30.6560 306° West 409 471 34,000  Level FlightAware
06:59AM 56.7840 30.5410 304° West 406 467 34,000  Level FlightAware
06:59AM 56.8140 30.4630 305° West 404 465 34,000  Level FlightAware
07:00AM 56.8510 30.3620 304° West 403 464 34,000  Level FlightAware
07:01AM 56.9000 30.2300 304° West 401 461 34,000  Level FlightAware
07:01AM 56.9320 30.1420 304° West 401 461 34,000  Level FlightAware
07:02AM 56.9720 30.0340 304° West 400 460 34,000  Level FlightAware
07:03AM 57.0070 29.9370 304° West 400 460 34,000  Level FlightAware
07:03AM 57.0430 29.8370 304° West 400 460 34,000  Level FlightAware
07:04AM 57.0830 29.7270 304° West 400 460 34,000  Level FlightAware
07:05AM 57.1290 29.5980 303° West 401 461 34,000  Level FlightAware
07:05AM 57.1650 29.4980 304° West 402 463 34,000  Level FlightAware
07:06AM 57.1960 29.4090 303° West 402 463 34,000  Level FlightAware
07:06AM 57.2380 29.2920 304° West 401 461 34,000  Level FlightAware
07:07AM 57.2700 29.2000 303° West 402 463 34,000  Level FlightAware
07:07AM 57.3080 29.0940 304° West 402 463 34,000  Level FlightAware
07:08AM 57.3440 28.9900 303° West 402 463 34,000  Level FlightAware
07:09AM 57.3810 28.8830 303° West 402 463 34,000  Level FlightAware
07:09AM 57.4110 28.7980 303° West 400 460 34,000  Level FlightAware
07:10AM 57.4470 28.6930 303° West 400 460 34,000  Level FlightAware
07:10AM 57.4840 28.5850 303° West 401 461 34,000  Level FlightAware
07:11AM 57.5160 28.4920 303° West 401 461 34,000  Level FlightAware
07:12AM 57.5570 28.3720 303° West 400 460 34,000  Level FlightAware
07:12AM 57.5950 28.2610 303° West 400 460 34,000  Level FlightAware
07:13AM 57.6290 28.1580 302° West 399 459 34,000  Level FlightAware
07:13AM 57.6620 28.0600 302° West 398 458 34,000  Level FlightAware
07:14AM 57.6950 27.9650 303° West 398 458 34,000  Level FlightAware
07:15AM 57.7290 27.8600 301° West 398 458 34,000  Level FlightAware
07:15AM 57.7640 27.7580 303° West 399 459 34,000  Level FlightAware
07:16AM 57.7990 27.6510 302° West 398 458 34,000  Level FlightAware
07:16AM 57.8320 27.5480 301° West 398 458 34,000  Level FlightAware
07:17AM 57.8550 27.4390 292° West 396 456 34,000  Level FlightAware
07:17AM 57.8780 27.3270 291° West 395 455 34,000  Level FlightAware
07:18AM 57.9020 27.2080 291° West 395 455 34,000  Level FlightAware
07:19AM 57.9260 27.0900 291° West 395 455 34,000  Level FlightAware
07:19AM 57.9450 26.9930 290° West 395 455 34,000  Level FlightAware
07:20AM 57.9680 26.8760 290° West 395 455 34,000  Level FlightAware
07:20AM 57.9910 26.7630 291° West 394 453 34,000  Level FlightAware
07:21AM 58.0140 26.6460 290° West 394 453 34,000  Level FlightAware
07:22AM 58.0350 26.5410 291° West 394 453 34,000  Level FlightAware
07:22AM 58.0570 26.4250 290° West 393 452 34,000  Level FlightAware
07:23AM 58.0790 26.3130 290° West 394 453 34,000  Level FlightAware
07:23AM 58.1020 26.1940 290° West 395 455 34,000  Level FlightAware
07:24AM 58.1210 26.0910 289° West 394 453 34,000  Level FlightAware
07:25AM 58.1450 25.9690 290° West 394 453 34,000  Level FlightAware
07:25AM 58.1630 25.8710 289° West 394 453 34,000  Level FlightAware
07:26AM 58.1850 25.7580 290° West 393 452 34,000  Level FlightAware
07:26AM 58.2080 25.6340 289° West 394 453 34,000  Level FlightAware
07:27AM 58.2280 25.5230 289° West 394 453 34,000  Level FlightAware
07:27AM 58.2500 25.4060 290° West 395 455 34,000  Level FlightAware
07:28AM 58.2720 25.2840 289° West 395 455 34,000  Level FlightAware
07:29AM 58.2930 25.1720 290° West 396 456 34,000  Level FlightAware
07:29AM 58.3130 25.0570 288° West 396 456 34,000  Level FlightAware
07:30AM 58.3340 24.9440 290° West 396 456 34,000  Level FlightAware
07:30AM 58.3530 24.8380 289° West 397 457 34,000  Level FlightAware
07:31AM 58.3740 24.7170 288° West 398 458 34,000  Level FlightAware
07:32AM 58.3970 24.5910 289° West 399 459 34,000  Level FlightAware
07:32AM 58.4160 24.4840 289° West 401 461 34,000  Level FlightAware
07:33AM 58.4340 24.3680 287° West 402 463 34,000  Level FlightAware
07:33AM 58.4530 24.2420 286° West 404 465 34,000  Level FlightAware
07:34AM 58.4720 24.1160 286° West 404 465 34,000  Level FlightAware
07:34AM 58.4870 24.0110 285° West 404 465 34,000  Level FlightAware
07:35AM 58.5060 23.8840 286° West 405 466 34,000  Level FlightAware
07:36AM 58.5250 23.7570 286° West 406 467 34,000  Level FlightAware
07:36AM 58.5400 23.6550 286° West 405 466 34,000  Level FlightAware
07:37AM 58.5590 23.5300 286° West 406 467 34,000  Level FlightAware
07:37AM 58.5770 23.4010 285° West 407 468 34,000  Level FlightAware
07:38AM 58.5950 23.2730 285° West 408 470 34,000  Level FlightAware
07:39AM 58.6120 23.1610 286° West 407 468 34,000  Level FlightAware
07:39AM 58.6300 23.0330 285° West 408 470 34,000  Level FlightAware
07:40AM 58.6450 22.9260 285° West 408 470 34,000  Level FlightAware
07:40AM 58.6640 22.7900 285° West 408 470 34,000  Level FlightAware
07:41AM 58.6800 22.6750 285° West 409 471 34,000  Level FlightAware
07:41AM 58.6970 22.5510 285° West 410 472 34,000  Level FlightAware
07:42AM 58.7130 22.4300 284° West 411 473 34,000  Level FlightAware
07:43AM 58.7300 22.3030 285° West 413 475 34,000  Level FlightAware
07:43AM 58.7460 22.1870 285° West 413 475 34,000  Level FlightAware
07:44AM 58.7630 22.0550 284° West 414 476 34,000  Level FlightAware
07:44AM 58.7800 21.9300 285° West 414 476 34,000  Level FlightAware
07:45AM 58.7960 21.8050 284° West 414 476 34,000  Level FlightAware
07:45AM 58.8090 21.7010 284° West 415 478 34,000  Level FlightAware
07:46AM 58.8290 21.5520 285° West 416 479 34,000  Level FlightAware
07:47AM 58.8430 21.4370 283° West 414 476 34,000  Level FlightAware
07:47AM 58.8610 21.3030 285° West 416 479 34,000  Level FlightAware
07:48AM 58.8840 21.1740 289° West 418 481 34,000  Level FlightAware
07:48AM 58.9040 21.0580 289° West 417 480 34,000  Level FlightAware
07:49AM 58.9250 20.9340 288° West 417 480 34,000  Level FlightAware
07:50AM 58.9470 20.8030 288° West 417 480 34,000  Level FlightAware
07:50AM 58.9640 20.6950 287° West 417 480 34,000  Level FlightAware
07:51AM 58.9850 20.5640 287° West 418 481 34,000  Level FlightAware
07:51AM 59.0070 20.4310 288° West 419 482 34,000  Level FlightAware
07:52AM 59.0250 20.3180 287° West 418 481 34,000  Level FlightAware
07:53AM 59.0460 20.1850 287° West 418 481 34,000  Level FlightAware
07:53AM 59.0660 20.0610 287° West 418 481 34,000  Level FlightAware
07:54AM 59.0840 19.9460 287° West 419 482 34,000  Level FlightAware
07:54AM 59.1040 19.8180 287° West 418 481 34,000 540 Level FlightAware
07:55AM 59.1250 19.6810 287° West 416 479 34,700 1,020 Climbing FlightAware
07:55AM 59.1430 19.5630 287° West 414 476 35,200 900 Climbing FlightAware
07:56AM 59.1630 19.4350 287° West 412 474 35,800 660 Climbing FlightAware
07:57AM 59.1810 19.3120 286° West 414 476 36,000 120 Climbing FlightAware
07:57AM 59.2000 19.1880 287° West 415 478 36,000  Level FlightAware
07:58AM 59.2180 19.0680 286° West 414 476 36,000  Level FlightAware
07:58AM 59.2370 18.9360 286° West 414 476 36,000  Level FlightAware
07:59AM 59.2560 18.8060 286° West 412 474 36,000  Level FlightAware
07:59AM 59.2730 18.6900 286° West 411 473 36,000  Level FlightAware
08:00AM 59.2910 18.5670 286° West 411 473 36,000  Level FlightAware
08:01AM 59.3100 18.4340 286° West 411 473 36,000  Level FlightAware
08:01AM 59.3280 18.3030 285° West 411 473 36,000  Level FlightAware
08:02AM 59.3450 18.1830 286° West 412 474 36,000  Level FlightAware
08:02AM 59.3650 18.0460 286° West 412 474 36,000  Level FlightAware
08:03AM 59.3800 17.9350 285° West 413 475 36,000  Level FlightAware
08:04AM 59.3980 17.8040 285° West 414 476 36,000  Level FlightAware
08:04AM 59.4160 17.6690 285° West 414 476 36,000  Level FlightAware
08:05AM 59.4320 17.5540 285° West 412 474 36,000  Level FlightAware
08:05AM 59.4500 17.4220 285° West 411 473 36,000  Level FlightAware
08:06AM 59.4680 17.2880 285° West 410 472 36,000  Level FlightAware
08:07AM 59.4860 17.1470 284° West 409 471 36,000  Level FlightAware
08:07AM 59.5030 17.0160 284° West 409 471 36,000  Level FlightAware
08:08AM 59.5190 16.8970 285° West 409 471 36,000  Level FlightAware
08:08AM 59.5350 16.7710 284° West 410 472 36,000  Level FlightAware
08:09AM 59.5520 16.6380 284° West 411 473 36,000  Level FlightAware
08:10AM 59.5680 16.5130 284° West 411 473 36,000  Level FlightAware
08:10AM 59.5820 16.3960 283° West 410 472 36,000  Level FlightAware
08:11AM 59.5960 16.2860 284° West 410 472 36,000  Level FlightAware
08:12AM 59.6230 16.0640 284° West 411 473 36,000  Level FlightAware
08:12AM 59.6400 15.9310 284° West 411 473 36,000  Level FlightAware
08:13AM 59.6540 15.8130 283° West 412 474 36,000  Level FlightAware
08:13AM 59.6690 15.6840 283° West 411 473 36,000  Level FlightAware
08:14AM 59.6840 15.5570 283° West 411 473 36,000  Level FlightAware
08:15AM 59.7000 15.4240 283° West 410 472 36,000  Level FlightAware
08:15AM 59.7140 15.3010 283° West 410 472 36,000  Level FlightAware
08:16AM 59.7300 15.1630 283° West 410 472 36,000  Level FlightAware
08:16AM 59.7440 15.0430 283° West 410 472 36,000  Level FlightAware
08:17AM 59.7570 14.9240 282° West 409 471 36,000  Level FlightAware
08:17AM 59.7720 14.7870 282° West 409 471 36,000  Level FlightAware
08:18AM 59.7870 14.6520 283° West 410 472 36,000  Level FlightAware
08:19AM 59.8010 14.5300 283° West 410 472 36,000  Level FlightAware
08:19AM 59.8150 14.4010 282° West 410 472 36,000  Level FlightAware
08:20AM 59.8290 14.2700 282° West 409 471 36,000  Level FlightAware
08:20AM 59.8440 14.1320 282° West 409 471 36,000  Level FlightAware
08:21AM 59.8570 14.0070 282° West 409 471 36,000  Level FlightAware
08:22AM 59.8700 13.8800 282° West 410 472 36,000  Level FlightAware
08:22AM 59.8830 13.7510 281° West 411 473 36,000  Level FlightAware
08:23AM 59.8970 13.6220 282° West 411 473 36,000  Level FlightAware
08:23AM 59.9090 13.5020 281° West 410 472 36,000  Level FlightAware
08:24AM 59.9210 13.3740 281° West 409 471 36,000  Level FlightAware
08:24AM 59.9350 13.2330 281° West 408 470 36,000  Level FlightAware
08:25AM 59.9480 13.1060 282° West 407 468 36,000  Level FlightAware
08:26AM 59.9610 12.9750 281° West 406 467 36,000  Level FlightAware
08:26AM 59.9720 12.8550 280° West 406 467 36,000  Level FlightAware
08:27AM 59.9850 12.7220 281° West 405 466 36,000  Level FlightAware
08:27AM 59.9960 12.5890 279° West 406 467 36,000  Level FlightAware
08:28AM 60.0060 12.4710 280° West 406 467 36,000  Level FlightAware
08:29AM 60.0190 12.3460 282° West 406 467 36,000  Level FlightAware
08:29AM 60.0400 12.2100 287° West 406 467 36,000  Level FlightAware
08:30AM 60.0580 12.0870 286° West 406 467 36,000  Level FlightAware
08:30AM 60.0770 11.9570 286° West 407 468 36,000  Level FlightAware
08:31AM 60.0950 11.8330 286° West 407 468 36,000  Level FlightAware
08:31AM 60.1110 11.7190 286° West 407 468 36,000  Level FlightAware
08:32AM 60.1260 11.6110 286° West 407 468 36,000  Level FlightAware
08:33AM 60.1490 11.4500 286° West 409 471 36,000  Level FlightAware
08:33AM 60.1650 11.3380 286° West 409 471 36,000  Level FlightAware
08:34AM 60.1840 11.2010 286° West 410 472 36,000  Level FlightAware
08:34AM 60.2000 11.0800 285° West 411 473 36,000  Level FlightAware
08:35AM 60.2190 10.9430 286° West 411 473 36,000  Level FlightAware
08:36AM 60.2370 10.8080 285° West 411 473 36,000  Level FlightAware
08:36AM 60.2550 10.6720 285° West 410 472 36,000  Level FlightAware
08:37AM 60.2710 10.5580 286° West 409 471 36,000  Level FlightAware
08:37AM 60.2870 10.4310 284° West 409 471 36,000  Level FlightAware
08:38AM 60.3040 10.3050 285° West 407 468 36,000  Level FlightAware
08:38AM 60.3220 10.1680 285° West 406 467 36,000  Level FlightAware
08:39AM 60.3380 10.0430 285° West 405 466 36,000  Level FlightAware
08:40AM 60.3530 9.9240 284° West 404 465 36,000  Level FlightAware
08:40AM 60.3700 9.7900 284° West 402 463 36,000  Level FlightAware
08:41AM 60.3850 9.6650 284° West 401 461 36,000  Level FlightAware
08:41AM 60.4000 9.5440 284° West 400 460 36,000  Level FlightAware
08:42AM 60.4160 9.4170 284° West 400 460 36,000  Level FlightAware
08:43AM 60.4330 9.2790 284° West 400 460 36,000  Level FlightAware
08:43AM 60.4490 9.1480 284° West 400 460 36,000  Level FlightAware
08:44AM 60.4630 9.0280 283° West 401 461 36,000  Level FlightAware
08:44AM 60.4790 8.8940 284° West 401 461 36,000  Level FlightAware
08:45AM 60.4920 8.7850 284° West 402 463 36,000  Level FlightAware
08:45AM 60.5070 8.6570 283° West 402 463 36,000  Level FlightAware
08:46AM 60.5230 8.5170 283° West 401 461 36,000  Level FlightAware
08:47AM 60.5390 8.3810 284° West 400 460 36,000  Level FlightAware
08:47AM 60.5530 8.2550 283° West 399 459 36,000  Level FlightAware
08:48AM 60.5660 8.1370 283° West 397 457 36,000  Level FlightAware
08:48AM 60.5810 8.0020 283° West 396 456 36,000  Level FlightAware
08:49AM 60.5930 7.8970 283° West 397 457 36,000  Level FlightAware
08:50AM 60.6080 7.7580 282° West 397 457 36,000  Level FlightAware
08:50AM 60.6173 7.6736 283° West 396 456 36,000  Level FlightAware ADS-B (EGBP)
08:50AM 60.6294 7.5626 283° West 397 457 36,000  Level FlightAware ADS-B (EGBP)
08:51AM 60.6410 7.4540 282° West 396 456 36,000  Level FlightAware ADS-B (EGBP)
08:51AM 60.6523 7.3469 282° West 396 456 36,000  Level FlightAware ADS-B (EGBP)
08:52AM 60.6639 7.2369 282° West 399 459 36,000  Level FlightAware ADS-B (EGBP)
08:53AM 60.6791 7.0907 282° West 401 461 36,000  Level FlightAware ADS-B (EGBP)
08:53AM 60.6920 6.9710 282° West 402 463 36,000  Level FlightAware
08:53AM 60.6940 6.9465 280° West 403 464 36,000  Level FlightAware ADS-B (EGBP)
08:54AM 60.7056 6.8322 282° West 404 465 36,000  Level FlightAware ADS-B (EGBP)
08:54AM 60.7171 6.7180 282° West 403 464 36,000  Level FlightAware ADS-B (EGBP)
08:55AM 60.7321 6.5686 282° West 403 464 36,000  Level FlightAware ADS-B (EGBP)
08:55AM 60.7440 6.4500 282° West 402 463 36,000  Level FlightAware
08:56AM 60.7460 6.4274 280° West 401 461 36,000  Level FlightAware ADS-B (EGBP)
08:56AM 60.7571 6.3132 281° West 398 458 36,000  Level FlightAware ADS-B (EGBP)
08:57AM 60.7680 6.2060 282° West 398 458 36,000  Level FlightAware
08:57AM 60.7716 6.1639 280° West 398 458 36,000  Level FlightAware ADS-B (EGBP)
08:57AM 60.7853 6.0194 281° West 396 456 36,000  Level FlightAware ADS-B (EGBP)
08:58AM 60.7958 5.9080 281° West 396 456 36,000  Level FlightAware ADS-B (EGBP)
08:59AM 60.8099 5.7580 281° West 395 455 36,000  Level FlightAware ADS-B (EGBP)
08:59AM 60.8200 5.6488 281° West 395 455 36,000  Level FlightAware ADS-B (EGBP)
09:00AM 60.8391 5.4376 281° West 395 455 36,000  Level FlightAware ADS-B (EGBP)
09:01AM 60.8510 5.3050 280° West 396 456 36,000  Level FlightAware
09:01AM 60.8620 5.1790 280° West 397 457 36,000  Level FlightAware
09:02AM 60.8740 5.0410 280° West 397 457 36,000  Level FlightAware
09:02AM 60.8860 4.9120 281° West 398 458 36,000  Level FlightAware
09:03AM 60.8960 4.7850 279° West 399 459 36,000  Level FlightAware
09:04AM 60.9070 4.6540 280° West 399 459 36,000  Level FlightAware
09:04AM 60.9180 4.5250 280° West 398 458 36,000  Level FlightAware
09:05AM 60.9290 4.3960 280° West 398 458 36,000  Level FlightAware
09:05AM 60.9400 4.2620 280° West 397 457 36,000  Level FlightAware
09:06AM 60.9510 4.1240 279° West 399 459 36,000  Level FlightAware
09:06AM 60.9590 4.0190 279° West 400 460 36,000  Level FlightAware
09:07AM 60.9710 3.8700 279° West 399 459 36,000  Level FlightAware
09:08AM 60.9810 3.7400 279° West 400 460 36,000  Level FlightAware
09:08AM 60.9900 3.6200 279° West 400 460 36,000  Level FlightAware
09:09AM 61.0010 3.4810 279° West 399 459 36,000  Level FlightAware
09:09AM 61.0100 3.3490 278° West 399 459 36,000  Level FlightAware
09:10AM 61.0200 3.2180 279° West 398 458 36,000  Level FlightAware
09:10AM 61.0280 3.1030 278° West 399 459 36,000  Level FlightAware
09:11AM 61.0380 2.9620 278° West 399 459 36,000  Level FlightAware
09:12AM 61.0460 2.8510 279° West 397 457 36,000  Level FlightAware
09:12AM 61.0570 2.6890 278° West 395 455 36,000  Level FlightAware
09:13AM 61.0660 2.5580 278° West 394 453 36,000  Level FlightAware
09:14AM 61.0750 2.4300 278° West 394 453 36,000  Level FlightAware
09:14AM 61.0830 2.3020 277° West 395 455 36,000  Level FlightAware
09:15AM 61.0920 2.1700 278° West 396 456 36,000  Level FlightAware
09:15AM 61.1000 2.0480 278° West 397 457 36,000  Level FlightAware
09:16AM 61.1090 1.9060 278° West 398 458 36,000  Level FlightAware
09:16AM 61.1180 1.7680 278° West 398 458 36,000  Level FlightAware
09:17AM 61.1250 1.6380 276° West 397 457 36,000  Level FlightAware
09:18AM 61.1340 1.4980 278° West 395 455 36,000  Level FlightAware
09:18AM 61.1400 1.3860 276° West 394 453 36,000  Level FlightAware
09:19AM 61.1480 1.2510 277° West 393 452 36,000  Level FlightAware
09:19AM 61.1560 1.1130 277° West 393 452 36,000  Level FlightAware
09:20AM 61.1630 0.9880 277° West 394 453 36,000  Level FlightAware
09:21AM 61.1710 0.8520 277° West 395 455 36,000  Level FlightAware
09:21AM 61.1780 0.7150 276° West 396 456 36,000  Level FlightAware
09:22AM 61.1840 0.5970 276° West 397 457 36,000  Level FlightAware
09:22AM 61.1920 0.4590 277° West 398 458 36,000  Level FlightAware
09:23AM 61.1990 0.3230 276° West 400 460 36,000  Level FlightAware
09:23AM 61.2050 0.1880 275° West 401 461 36,000  Level FlightAware
09:24AM 61.2130 0.0670 278° West 400 460 36,000  Level FlightAware
09:25AM 61.2320 -0.0690 286° West 399 459 36,000  Level FlightAware
09:25AM 61.2580 -0.1930 294° West 397 457 36,000  Level FlightAware
09:26AM 61.2810 -0.2930 296° West 398 458 36,000  Level FlightAware
09:26AM 61.3130 -0.4360 295° West 397 457 36,000  Level FlightAware
09:27AM 61.3400 -0.5570 295° West 397 457 36,000  Level FlightAware
09:27AM 61.3640 -0.6670 295° West 397 457 36,000  Level FlightAware
09:28AM 61.3910 -0.7900 295° West 397 457 36,000  Level FlightAware
09:29AM 61.4190 -0.9200 294° West 398 458 36,000  Level FlightAware
09:29AM 61.4460 -1.0430 295° West 399 459 36,000  Level FlightAware
09:30AM 61.4700 -1.1550 294° West 399 459 36,000  Level FlightAware
09:30AM 61.4970 -1.2820 294° West 399 459 36,000  Level FlightAware
09:31AM 61.5240 -1.4090 294° West 399 459 36,000  Level FlightAware
09:32AM 61.5500 -1.5270 295° West 400 460 36,000  Level FlightAware
09:32AM 61.5760 -1.6510 294° West 400 460 36,000  Level FlightAware
09:33AM 61.6010 -1.7740 293° West 402 463 36,000  Level FlightAware
09:33AM 61.6240 -1.8830 294° West 402 463 36,000  Level FlightAware
09:34AM 61.6560 -2.0390 293° West 404 465 36,000  Level FlightAware
09:35AM 61.6820 -2.1620 294° West 404 465 36,000  Level FlightAware
09:35AM 61.7060 -2.2830 293° West 405 466 36,000  Level FlightAware
09:36AM 61.7280 -2.3900 294° West 406 467 36,000  Level FlightAware
09:36AM 61.7590 -2.5410 294° West 407 468 36,000  Level FlightAware
09:37AM 61.7820 -2.6570 293° West 407 468 36,000  Level FlightAware
09:37AM 61.8110 -2.8030 293° West 407 468 36,000  Level FlightAware
09:38AM 61.8320 -2.9090 293° West 407 468 36,000  Level FlightAware
09:39AM 61.8600 -3.0530 292° West 407 468 36,000  Level FlightAware
09:39AM 61.8860 -3.1840 293° West 408 470 36,000  Level FlightAware
09:40AM 61.9110 -3.3130 292° West 408 470 36,000  Level FlightAware
09:41AM 61.9450 -3.4880 293° West 409 471 36,000  Level FlightAware
09:41AM 61.9710 -3.6240 292° West 409 471 36,000  Level FlightAware
09:42AM 61.9960 -3.7560 292° West 410 472 36,000  Level FlightAware
09:42AM 62.0200 -3.8820 292° West 412 474 36,000  Level FlightAware
09:43AM 62.0410 -3.9980 291° West 413 475 36,000  Level FlightAware
09:43AM 62.0690 -4.1480 292° West 413 475 36,000  Level FlightAware
09:44AM 62.0940 -4.2830 292° West 414 476 36,000  Level FlightAware
09:45AM 62.1190 -4.4200 291° West 414 476 36,000  Level FlightAware
09:45AM 62.1420 -4.5440 292° West 415 478 36,000  Level FlightAware
09:46AM 62.1640 -4.6640 291° West 415 478 36,000  Level FlightAware
09:46AM 62.1900 -4.8090 291° West 416 479 36,000  Level FlightAware
09:47AM 62.2130 -4.9410 291° West 418 481 36,000  Level FlightAware
09:48AM 62.2370 -5.0720 292° West 418 481 36,000  Level FlightAware
09:48AM 62.2630 -5.2190 291° West 419 482 36,000  Level FlightAware
09:49AM 62.2850 -5.3490 290° West 418 481 36,000  Level FlightAware
09:49AM 62.3080 -5.4800 291° West 419 482 36,000  Level FlightAware
09:50AM 62.3320 -5.6170 291° West 418 481 36,000  Level FlightAware
09:50AM 62.3570 -5.7650 290° West 419 482 36,000  Level FlightAware
09:51AM 62.3780 -5.8900 290° West 421 484 36,000  Level FlightAware
09:52AM 62.4040 -6.0390 291° West 421 484 36,000  Level FlightAware
09:52AM 62.4270 -6.1810 289° West 422 486 36,000  Level FlightAware
09:53AM 62.4480 -6.3080 290° West 422 486 36,000  Level FlightAware
09:53AM 62.4710 -6.4440 290° West 423 487 36,000  Level FlightAware
09:54AM 62.4940 -6.5850 290° West 424 488 36,000  Level FlightAware
09:55AM 62.5170 -6.7290 289° West 425 489 36,000  Level FlightAware
09:55AM 62.5410 -6.8730 290° West 425 489 36,000  Level FlightAware
09:56AM 62.5630 -7.0150 289° West 426 490 36,000  Level FlightAware
09:56AM 62.5870 -7.1420 292° West 425 489 36,000  Level FlightAware
09:57AM 62.6170 -7.2830 295° West 426 490 36,000  Level FlightAware
09:57AM 62.6450 -7.4220 294° West 427 491 36,000  Level FlightAware
09:58AM 62.6700 -7.5490 293° West 427 491 36,000  Level FlightAware
09:59AM 62.7010 -7.7040 294° West 427 491 36,000  Level FlightAware
09:59AM 62.7230 -7.8200 293° West 428 493 36,000  Level FlightAware
10:00AM 62.7510 -7.9650 293° West 429 494 36,000  Level FlightAware
10:01AM 62.7840 -8.1410 292° West 429 494 36,000  Level FlightAware
10:01AM 62.8170 -8.3100 293° West 428 493 36,000  Level FlightAware
10:02AM 62.8550 -8.5120 292° West 429 494 36,000  Level FlightAware
10:03AM 62.8960 -8.7330 292° West 431 496 36,000  Level FlightAware
10:04AM 62.9250 -8.8870 293° West 434 499 36,000  Level FlightAware
10:04AM 62.9520 -9.0360 292° West 435 501 36,000  Level FlightAware
10:05AM 62.9810 -9.1950 292° West 435 501 36,000  Level FlightAware
10:05AM 63.0040 -9.3230 292° West 436 502 36,000  Level FlightAware
10:06AM 63.0300 -9.4650 292° West 435 501 36,000  Level FlightAware
10:07AM 63.0560 -9.6130 291° West 434 499 36,000  Level FlightAware
10:07AM 63.0830 -9.7660 291° West 433 498 36,000  Level FlightAware
10:08AM 63.1030 -9.8810 291° West 434 499 36,000  Level FlightAware
10:08AM 63.1320 -10.0490 291° West 433 498 36,000  Level FlightAware
10:09AM 63.1560 -10.1860 291° West 434 499 36,000  Level FlightAware
10:09AM 63.1820 -10.3370 291° West 436 502 36,000  Level FlightAware
10:10AM 63.2060 -10.4790 291° West 436 502 36,000  Level FlightAware
10:11AM 63.2270 -10.6060 290° West 437 503 36,000  Level FlightAware
10:11AM 63.2510 -10.7470 291° West 438 504 36,000  Level FlightAware
10:12AM 63.2820 -10.9340 290° West 437 503 36,000  Level FlightAware
10:12AM 63.3060 -11.0820 290° West 438 504 36,000  Level FlightAware
10:13AM 63.3290 -11.2210 290° West 437 503 36,000  Level FlightAware
10:14AM 63.3520 -11.3620 290° West 438 504 36,000  Level FlightAware
10:14AM 63.3760 -11.5090 290° West 438 504 36,000  Level FlightAware
10:15AM 63.4010 -11.6710 289° West 439 505 36,000  Level FlightAware
10:15AM 63.4250 -11.8210 290° West 438 504 36,000  Level FlightAware
10:16AM 63.4490 -11.9730 290° West 439 505 36,000  Level FlightAware
10:16AM 63.4700 -12.1100 289° West 439 505 36,000  Level FlightAware
10:17AM 63.4930 -12.2570 289° West 439 505 36,000  Level FlightAware
10:18AM 63.5160 -12.4120 288° West 441 507 36,000  Level FlightAware
10:18AM 63.5390 -12.5610 289° West 442 509 36,000  Level FlightAware
10:19AM 63.5640 -12.7250 289° West 443 510 36,000  Level FlightAware
10:19AM 63.5860 -12.8720 289° West 443 510 36,000  Level FlightAware
10:20AM 63.6070 -13.0170 288° West 443 510 36,000  Level FlightAware
10:21AM 63.6280 -13.1590 288° West 443 510 36,000  Level FlightAware
10:21AM 63.6510 -13.3160 288° West 443 510 36,000  Level FlightAware
10:22AM 63.6700 -13.4470 288° West 444 511 36,000  Level FlightAware
10:22AM 63.6940 -13.6150 288° West 445 512 36,000  Level FlightAware
10:23AM 63.7130 -13.7540 287° West 445 512 36,000  Level FlightAware
10:23AM 63.7360 -13.9150 288° West 446 513 36,000  Level FlightAware
10:24AM 63.7580 -14.0750 287° West 446 513 36,000  Level FlightAware
10:25AM 63.7780 -14.2190 288° West 445 512 36,000  Level FlightAware
10:25AM 63.7980 -14.3680 287° West 446 513 36,000  Level FlightAware
10:26AM 63.8180 -14.5180 287° West 447 514 36,000  Level FlightAware
10:26AM 63.8430 -14.7000 287° West 447 514 36,000  Level FlightAware
10:27AM 63.8640 -14.8610 287° West 446 513 36,000  Level FlightAware
10:27AM 63.8820 -15.0010 286° West 445 512 36,000  Level FlightAware
10:28AM 63.9020 -15.1510 287° West 444 511 36,000  Level FlightAware
10:29AM 63.9240 -15.3230 286° West 443 510 36,000  Level FlightAware
10:29AM 63.9430 -15.4740 286° West 444 511 36,000  Level FlightAware
10:30AM 63.9640 -15.6370 286° West 445 512 36,000  Level FlightAware
10:30AM 63.9830 -15.7880 286° West 444 511 36,000  Level FlightAware
10:31AM 64.0030 -15.9510 286° West 445 512 36,000  Level FlightAware
10:32AM 64.0220 -16.1050 286° West 446 513 36,000  Level FlightAware
10:32AM 64.0400 -16.2560 285° West 445 512 36,000  Level FlightAware
10:33AM 64.0600 -16.4260 285° West 445 512 36,000  Level FlightAware
10:33AM 64.0780 -16.5730 286° West 446 513 36,000  Level FlightAware
10:34AM 64.0980 -16.7470 285° West 447 514 36,000  Level FlightAware
10:34AM 64.1150 -16.8920 285° West 446 513 36,000  Level FlightAware
10:35AM 64.1340 -17.0590 285° West 447 514 36,000  Level FlightAware
10:36AM 64.1510 -17.2100 285° West 447 514 36,000  Level FlightAware
10:36AM 64.1700 -17.3770 285° West 446 513 36,000  Level FlightAware
10:37AM 64.1880 -17.5380 284° West 445 512 36,000  Level FlightAware
10:37AM 64.2040 -17.6840 284° West 445 512 36,000  Level FlightAware
10:38AM 64.2230 -17.8590 284° West 445 512 36,000  Level FlightAware
10:39AM 64.2390 -18.0060 284° West 445 512 36,000  Level FlightAware
10:39AM 64.2560 -18.1700 283° West 445 512 36,000  Level FlightAware
10:40AM 64.2720 -18.3190 284° West 445 512 36,000  Level FlightAware
10:40AM 64.2910 -18.5040 283° West 444 511 36,000  Level FlightAware
10:41AM 64.3070 -18.6600 283° West 443 510 36,000  Level FlightAware
10:41AM 64.3240 -18.8250 283° West 443 510 36,000  Level FlightAware
10:42AM 64.3400 -18.9860 283° West 442 509 36,000  Level FlightAware
10:43AM 64.3550 -19.1350 283° West 440 506 36,000  Level FlightAware
10:43AM 64.3710 -19.2970 283° West 439 505 36,000  Level FlightAware
10:44AM 64.3840 -19.4370 282° West 440 506 36,000  Level FlightAware
10:44AM 64.4020 -19.6240 283° West 439 505 36,000  Level FlightAware
10:45AM 64.4160 -19.7710 283° West 439 505 36,000  Level FlightAware
10:46AM 64.4320 -19.9460 282° West 440 506 36,000  Level FlightAware
10:46AM 64.4460 -20.1020 282° West 440 506 36,000  Level FlightAware
10:47AM 64.4600 -20.2500 282° West 441 507 36,000  Level FlightAware
10:47AM 64.4740 -20.4070 282° West 440 506 36,000  Level FlightAware
10:48AM 64.4900 -20.5910 281° West 439 505 36,000  Level FlightAware
10:48AM 64.5040 -20.7440 282° West 438 504 36,000  Level FlightAware
10:49AM 64.5170 -20.9020 281° West 438 504 36,000  Level FlightAware
10:50AM 64.5320 -21.0760 281° West 437 503 36,000  Level FlightAware
10:50AM 64.5450 -21.2340 281° West 437 503 36,000  Level FlightAware
10:51AM 64.5560 -21.3730 280° West 437 503 36,000  Level FlightAware
10:51AM 64.5710 -21.5580 281° West 438 504 36,000  Level FlightAware
10:52AM 64.5840 -21.7220 281° West 439 505 36,000  Level FlightAware
10:53AM 64.5960 -21.8670 281° West 439 505 36,000  Level FlightAware
10:53AM 64.6100 -22.0480 280° West 439 505 36,000  Level FlightAware
10:54AM 64.6210 -22.1880 280° West 440 506 36,000  Level FlightAware
10:54AM 64.6330 -22.3560 280° West 440 506 36,000  Level FlightAware
10:55AM 64.6470 -22.5390 280° West 439 505 36,000  Level FlightAware
10:55AM 64.6580 -22.6910 280° West 439 505 36,000  Level FlightAware
10:56AM 64.6700 -22.8650 279° West 437 503 36,000  Level FlightAware
10:57AM 64.6810 -23.0140 280° West 436 502 36,000  Level FlightAware
10:57AM 64.6910 -23.1620 279° West 438 504 36,000  Level FlightAware
10:58AM 64.7020 -23.3220 279° West 440 506 36,000  Level FlightAware
10:58AM 64.7130 -23.4890 279° West 443 510 36,000  Level FlightAware
10:59AM 64.7260 -23.6780 279° West 445 512 36,000  Level FlightAware
11:00AM 64.7360 -23.8330 279° West 446 513 36,000  Level FlightAware
11:00AM 64.7470 -24.0020 279° West 446 513 36,000  Level FlightAware
11:01AM 64.7560 -24.1470 278° West 446 513 36,000  Level FlightAware
11:01AM 64.7660 -24.3100 278° West 446 513 36,000  Level FlightAware
11:02AM 64.7750 -24.4700 278° West 446 513 36,000  Level FlightAware
11:02AM 64.7850 -24.6400 278° West 446 513 36,000  Level FlightAware
11:03AM 64.7950 -24.8120 278° West 444 511 36,000  Level FlightAware
11:04AM 64.8040 -24.9730 278° West 443 510 36,000 120 Level FlightAware
11:04AM 64.8140 -25.1490 278° West 442 509 36,200 420 Climbing FlightAware
11:05AM 64.8220 -25.2980 277° West 441 507 36,500 540 Climbing FlightAware
11:05AM 64.8310 -25.4590 278° West 445 512 36,800 360 Climbing FlightAware
11:06AM 64.8400 -25.6430 277° West 449 517 37,000 120 Climbing FlightAware
11:06AM 64.8490 -25.8100 277° West 449 517 37,000  Level FlightAware
11:07AM 64.8570 -25.9720 277° West 450 518 37,000  Level FlightAware
11:08AM 64.8660 -26.1550 277° West 448 516 37,000  Level FlightAware
11:08AM 64.8730 -26.3070 276° West 447 514 37,000  Level FlightAware
11:09AM 64.8820 -26.4910 277° West 446 513 37,000  Level FlightAware
11:09AM 64.8890 -26.6560 276° West 447 514 37,000  Level FlightAware
11:10AM 64.8970 -26.8330 276° West 448 516 37,000  Level FlightAware
11:11AM 64.9030 -26.9820 275° West 449 517 37,000  Level FlightAware
11:11AM 64.9110 -27.1640 276° West 449 517 37,000  Level FlightAware
11:12AM 64.9160 -27.2910 275° West 448 516 37,000  Level FlightAware
11:12AM 64.9250 -27.5040 276° West 448 516 37,000  Level FlightAware
11:13AM 64.9320 -27.6850 275° West 450 518 37,000  Level FlightAware
11:14AM 64.9390 -27.8750 275° West 450 518 37,000  Level FlightAware
11:14AM 64.9430 -28.0120 274° West 449 517 37,000  Level FlightAware
11:15AM 64.9500 -28.2270 274° West 449 517 37,000  Level FlightAware
11:15AM 64.9570 -28.4220 275° West 448 516 37,000  Level FlightAware
11:16AM 64.9620 -28.5640 275° West 448 516 37,000  Level FlightAware
11:17AM 64.9680 -28.7540 274° West 449 517 37,000  Level FlightAware
11:17AM 64.9730 -28.9350 274° West 450 518 37,000  Level FlightAware
11:18AM 64.9770 -29.1170 273° West 450 518 37,000  Level FlightAware
11:19AM 64.9840 -29.3200 275° West 452 520 37,000  Level FlightAware
11:19AM 64.9880 -29.4800 273° West 453 521 37,000  Level FlightAware
11:20AM 64.9920 -29.6370 274° West 454 522 37,000  Level FlightAware
11:20AM 64.9960 -29.8060 273° West 455 524 37,000  Level FlightAware
11:21AM 65.0000 -30.0020 273° West 456 525 37,000  Level FlightAware
11:21AM 65.0050 -30.1790 274° West 455 524 37,000  Level FlightAware
11:22AM 65.0120 -30.3960 274° West 456 525 37,000  Level FlightAware
11:23AM 65.0190 -30.5950 275° West 456 525 37,000  Level FlightAware
11:23AM 65.0240 -30.7760 274° West 456 525 37,000  Level FlightAware
11:24AM 65.0280 -30.9180 274° West 456 525 37,000  Level FlightAware
11:25AM 65.0330 -31.1160 274° West 455 524 37,000  Level FlightAware
11:25AM 65.0380 -31.2800 274° West 456 525 37,000  Level FlightAware
11:26AM 65.0410 -31.4330 273° West 456 525 37,000  Level FlightAware
11:26AM 65.0460 -31.6340 273° West 456 525 37,000  Level FlightAware
11:27AM 65.0490 -31.7870 273° West 456 525 37,000  Level FlightAware
11:28AM 65.0530 -31.9480 273° West 456 525 37,000  Level FlightAware
11:28AM 65.0560 -32.1010 273° West 456 525 37,000  Level FlightAware
11:29AM 65.0600 -32.2580 274° West 456 525 37,000  Level FlightAware
11:29AM 65.0630 -32.4020 273° West 456 525 37,000  Level FlightAware
11:30AM 65.0660 -32.5640 273° West 456 525 37,000  Level FlightAware
11:31AM 65.0700 -32.7210 274° West 456 525 37,000  Level FlightAware
11:31AM 65.0730 -32.8740 273° West 456 525 37,000  Level FlightAware
11:32AM 65.0760 -33.0270 273° West 456 525 37,000  Level FlightAware
11:33AM 65.0800 -33.1840 274° West 456 525 37,000  Level FlightAware
11:33AM 65.0830 -33.3330 273° West 456 525 37,000  Level FlightAware
11:34AM 65.0870 -33.4860 274° West 456 525 37,000  Level FlightAware
11:34AM 65.0900 -33.6430 273° West 456 525 37,000  Level FlightAware
11:35AM 65.0930 -33.7920 273° West 456 525 37,000  Level FlightAware
11:36AM 65.0970 -33.9490 274° West 456 525 37,000  Level FlightAware
11:38AM 64.9842 -34.4179 241° Southwest  Level Estimated
11:39AM 64.9268 -34.6529 240° Southwest  Level Estimated
11:40AM 64.8690 -34.8868 240° Southwest  Level Estimated
11:41AM 64.8109 -35.1197 240° Southwest  Level Estimated
11:42AM 64.7524 -35.3517 239° Southwest  Level Estimated
11:43AM 64.6936 -35.5826 239° Southwest  Level Estimated
11:44AM 64.6343 -35.8125 239° Southwest  Level Estimated
11:45AM 64.5748 -36.0414 239° Southwest  Level Estimated
11:46AM 64.5148 -36.2693 239° Southwest  Level Estimated
11:47AM 64.4545 -36.4962 238° Southwest  Level Estimated
11:48AM 64.3939 -36.7221 238° Southwest  Level Estimated
11:49AM 64.3329 -36.9470 238° Southwest  Level Estimated
11:50AM 64.2716 -37.1709 238° Southwest  Level Estimated
11:51AM 64.2100 -37.3938 238° Southwest  Level Estimated
11:52AM 64.1479 -37.6157 237° Southwest  Level Estimated
11:53AM 64.0856 -37.8366 237° Southwest  Level Estimated
11:54AM 64.0229 -38.0566 237° Southwest  Level Estimated
11:55AM 63.9592 -38.2783 237° Southwest  Level Estimated
11:56AM 63.8950 -38.4989 237° Southwest  Level Estimated
11:57AM 63.8306 -38.7186 236° Southwest  Level Estimated
11:58AM 63.7658 -38.9372 236° Southwest  Level Estimated
11:59AM 63.7007 -39.1549 236° Southwest  Level Estimated
12:00PM 63.6352 -39.3715 236° Southwest  Level Estimated
12:01PM 63.5695 -39.5872 236° Southwest  Level Estimated
12:02PM 63.5034 -39.8018 235° Southwest  Level Estimated
12:03PM 63.4370 -40.0155 235° Southwest  Level Estimated
12:04PM 63.3702 -40.2282 235° Southwest  Level Estimated
12:05PM 63.3032 -40.4398 235° Southwest  Level Estimated
12:06PM 63.2358 -40.6505 235° Southwest  Level Estimated
12:07PM 63.1682 -40.8602 235° Southwest  Level Estimated
12:08PM 63.1002 -41.0690 234° Southwest  Level Estimated
12:09PM 63.0319 -41.2767 234° Southwest  Level Estimated
12:10PM 62.9633 -41.4835 234° Southwest  Level Estimated
12:11PM 62.8945 -41.6893 234° Southwest  Level Estimated
12:12PM 62.8253 -41.8942 234° Southwest  Level Estimated
12:13PM 62.7558 -42.0980 233° Southwest  Level Estimated
12:14PM 62.6860 -42.3010 233° Southwest  Level Estimated
12:15PM 62.6160 -42.5029 233° Southwest  Level Estimated
12:16PM 62.5456 -42.7039 233° Southwest  Level Estimated
12:17PM 62.4750 -42.9040 233° Southwest  Level Estimated
12:18PM 62.4040 -43.1031 232° Southwest  Level Estimated
12:19PM 62.3328 -43.3013 232° Southwest  Level Estimated
12:20PM 62.2613 -43.4985 232° Southwest  Level Estimated
12:21PM 62.1896 -43.6948 232° Southwest  Level Estimated
12:22PM 62.1175 -43.8902 232° Southwest  Level Estimated
12:23PM 62.0452 -44.0846 232° Southwest  Level Estimated
12:24PM 61.9726 -44.2781 231° Southwest  Level Estimated
12:25PM 61.8998 -44.4707 231° Southwest  Level Estimated
12:26PM 61.8266 -44.6624 231° Southwest  Level Estimated
12:27PM 61.7533 -44.8532 231° Southwest  Level Estimated
12:28PM 61.6796 -45.0430 231° Southwest  Level Estimated
12:28PM 63.9960 -50.0280 231° Southwest 458 527 37,000  Level FlightAware
12:29PM 63.9680 -50.2140 251° West 459 528 37,000  Level FlightAware
12:29PM 63.9430 -50.3670 250° West 461 531 37,000  Level FlightAware
12:30PM 63.9210 -50.5110 251° West 458 527 37,000  Level FlightAware
12:30PM 63.8940 -50.6800 250° West 454 522 37,000  Level FlightAware
12:31PM 63.8700 -50.8320 250° West 452 520 37,000  Level FlightAware
12:31PM 63.8440 -50.9910 250° West 451 519 37,000  Level FlightAware
12:32PM 63.8190 -51.1470 250° West 449 517 37,000  Level FlightAware
12:33PM 63.7950 -51.2920 250° West 450 518 37,000  Level FlightAware
12:33PM 63.7690 -51.4480 249° West 450 518 37,000  Level FlightAware
12:34PM 63.7450 -51.5960 250° West 450 518 37,000  Level FlightAware
12:34PM 63.7150 -51.7730 249° West 452 520 37,000  Level FlightAware
12:35PM 63.6910 -51.9120 249° West 453 521 37,000  Level FlightAware
12:36PM 63.6630 -52.0800 249° West 455 524 37,000  Level FlightAware
12:36PM 63.6370 -52.2300 249° West 455 524 37,000  Level FlightAware
12:37PM 63.6130 -52.3700 249° West 457 526 37,000  Level FlightAware
12:37PM 63.5830 -52.5400 248° West 457 526 37,000  Level FlightAware
12:38PM 63.5590 -52.6770 249° West 457 526 37,000  Level FlightAware
12:38PM 63.5280 -52.8520 248° West 456 525 37,000  Level FlightAware
12:39PM 63.5010 -53.0020 248° West 454 522 37,000  Level FlightAware
12:40PM 63.4760 -53.1410 248° West 452 520 37,000  Level FlightAware
12:40PM 63.4510 -53.2790 248° West 452 520 37,000  Level FlightAware
12:41PM 63.4210 -53.4430 248° West 452 520 37,000  Level FlightAware
12:41PM 63.3930 -53.5950 248° West 453 521 37,000  Level FlightAware
12:42PM 63.3630 -53.7530 247° West 454 522 37,000  Level FlightAware
12:43PM 63.3350 -53.9060 248° West 455 524 37,000  Level FlightAware
12:43PM 63.3080 -54.0450 247° West 457 526 37,000  Level FlightAware
12:44PM 63.2810 -54.1870 247° West 458 527 37,000  Level FlightAware
12:44PM 63.2470 -54.3600 246° West 458 527 37,000  Level FlightAware
12:45PM 63.2220 -54.4880 247° West 458 527 37,000  Level FlightAware
12:46PM 63.1970 -54.6120 246° West 458 527 37,000  Level FlightAware
12:46PM 63.1700 -54.7470 246° West 458 527 37,000  Level FlightAware
12:47PM 63.1430 -54.8810 246° West 458 527 37,000  Level FlightAware
12:47PM 63.1150 -55.0160 245° Southwest 458 527 37,000  Level FlightAware
12:48PM 63.0910 -55.1400 247° West 458 527 37,000  Level FlightAware
12:49PM 63.0650 -55.2670 246° West 458 527 37,000  Level FlightAware
12:49PM 63.0380 -55.4010 246° West 458 527 37,000  Level FlightAware
12:50PM 63.0110 -55.5320 246° West 458 527 37,000  Level FlightAware
12:50PM 62.9850 -55.6620 246° West 458 527 37,000  Level FlightAware
12:51PM 62.9590 -55.7920 246° West 458 527 37,000  Level FlightAware
12:52PM 62.9320 -55.9230 246° West 458 527 37,000  Level FlightAware
12:52PM 62.9050 -56.0560 246° West 458 527 37,000  Level FlightAware
12:53PM 62.8780 -56.1900 246° West 458 527 37,000  Level FlightAware
12:53PM 62.8510 -56.3230 246° West 458 527 37,000  Level FlightAware
12:56PM 62.7473 -56.8065 245° Southwest  Level FlightAware Approximate
12:57PM 62.6973 -57.0356 245° Southwest  Level FlightAware Approximate
12:58PM 62.6469 -57.2640 244° Southwest  Level FlightAware Approximate
12:59PM 62.5962 -57.4916 244° Southwest  Level FlightAware Approximate
01:00PM 62.5451 -57.7184 244° Southwest  Level FlightAware Approximate
01:01PM 62.4936 -57.9444 244° Southwest  Level FlightAware Approximate
01:02PM 62.4418 -58.1696 244° Southwest  Level FlightAware Approximate
01:03PM 62.3896 -58.3941 243° Southwest  Level FlightAware Approximate
01:04PM 62.3370 -58.6178 243° Southwest  Level FlightAware Approximate
01:04PM 62.2500 -59.0833 242° Southwest 330 380 37,000  Level Gander Center
01:05PM 62.2841 -58.8407 243° Southwest  Level FlightAware Approximate
01:05PM 62.1833 -59.3000 237° Southwest 440 506 37,000  Level Gander Center
01:06PM 62.2308 -59.0628 243° Southwest  Level FlightAware Approximate
01:06PM 62.1167 -59.5167 237° Southwest 470 541 37,000  Level Gander Center
01:07PM 62.1772 -59.2841 243° Southwest  Level FlightAware Approximate
01:07PM 62.0667 -59.7667 247° West 460 529 37,000  Level Gander Center
01:07PM 62.0000 -59.8833 219° Southwest 450 518 37,000  Level Montreal Center
01:08PM 62.1232 -59.5047 242° Southwest  Level FlightAware Approximate
01:08PM 61.9167 -60.0833 229° Southwest 450 518 37,000  Level Montreal Center
01:09PM 62.0689 -59.7244 242° Southwest  Level FlightAware Approximate
01:09PM 61.8333 -60.3000 231° Southwest 450 518 37,000  Level Montreal Center
01:10PM 61.7833 -60.5167 244° Southwest 450 518 37,000  Level Montreal Center
01:11PM 61.7000 -60.7667 235° Southwest 450 518 37,000  Level Montreal Center
01:12PM 61.6333 -60.9333 230° Southwest 430 495 37,000  Level Montreal Center
01:13PM 61.5500 -61.1500 231° Southwest 450 518 37,000  Level Montreal Center
01:14PM 61.5000 -61.3667 244° Southwest 450 518 37,000  Level Montreal Center
01:15PM 61.4167 -61.5833 231° Southwest 450 518 37,000  Level Montreal Center
01:16PM 61.3333 -61.8000 231° Southwest 450 518 37,000  Level Montreal Center
01:17PM 61.2667 -62.0000 235° Southwest 450 518 37,000  Level Montreal Center
01:18PM 61.1833 -62.2167 231° Southwest 450 518 37,000  Level Montreal Center
01:19PM 61.1167 -62.4167 235° Southwest 450 518 37,000  Level Montreal Center
01:20PM 61.0333 -62.6333 232° Southwest 450 518 37,000  Level Montreal Center
01:21PM 60.9667 -62.8333 236° Southwest 450 518 37,000  Level Montreal Center
01:23PM 60.8833 -63.1667 243° Southwest 460 529 37,000  Level Gander Center
01:24PM 60.8167 -63.3667 236° Southwest 440 506 37,000  Level Gander Center
01:25PM 60.7333 -63.5667 230° Southwest 460 529 37,000  Level Gander Center
01:26PM 60.6667 -63.7500 233° Southwest 450 518 37,000  Level Gander Center
01:27PM 60.5667 -63.9500 225° Southwest 450 518 37,000  Level Gander Center
01:28PM 60.5000 -64.1500 236° Southwest 440 506 37,000  Level Gander Center
01:29PM 60.4167 -64.3500 230° Southwest 440 506 37,100 300 Climbing Gander Center
01:30PM 60.3500 -64.5500 236° Southwest 450 518 37,600 420 Climbing Gander Center
01:31PM 60.2667 -64.7333 228° Southwest 450 518 38,000 180 Climbing Gander Center
01:32PM 60.1833 -64.9333 230° Southwest 460 529 38,000  Level Gander Center
01:33PM 60.1167 -65.1500 238° Southwest 470 541 38,000  Level Gander Center
01:34PM 60.0167 -65.3167 220° Southwest 470 541 38,000  Level Gander Center
01:35PM 59.9167 -65.5000 223° Southwest 470 541 38,000  Level Gander Center
01:36PM 59.8167 -65.6500 217° Southwest 470 541 38,000  Level Gander Center
01:37PM 59.7167 -65.8333 223° Southwest 470 541 38,000  Level Gander Center
01:38PM 59.6167 -66.0167 223° Southwest 470 541 38,000  Level Gander Center
01:39PM 59.5167 -66.1667 217° Southwest 470 541 38,000  Level Gander Center
01:40PM 59.4333 -66.3167 222° Southwest 470 541 38,000  Level Gander Center
01:41PM 59.3167 -66.5000 219° Southwest 470 541 38,000  Level Gander Center
01:42PM 59.2333 -66.6500 223° Southwest 470 541 38,000  Level Gander Center
01:43PM 59.1167 -66.8333 219° Southwest 470 541 38,000  Level Gander Center
01:44PM 59.0333 -66.9833 223° Southwest 470 541 38,000  Level Gander Center
01:45PM 58.9167 -67.1667 219° Southwest 470 541 38,000  Level Gander Center
01:45PM 58.8500 -67.2333 207° Southwest 470 541 38,000  Level Montreal Center
01:46PM 58.7500 -67.4000 221° Southwest 470 541 38,000  Level Montreal Center
01:47PM 58.6333 -67.5500 214° Southwest 470 541 38,000  Level Montreal Center
01:49PM 58.5333 -67.8000 233° Southwest 470 541 38,000  Level Gander Center
01:50PM 58.4167 -67.9667 217° Southwest 470 541 38,000  Level Gander Center
01:51PM 58.3167 -68.1167 218° Southwest 470 541 38,000  Level Gander Center
01:52PM 58.2167 -68.2833 221° Southwest 470 541 38,000  Level Gander Center
01:53PM 58.1167 -68.4167 215° Southwest 470 541 38,000  Level Gander Center
01:54PM 58.0167 -68.5667 218° Southwest 460 529 38,000  Level Gander Center
01:55PM 57.9167 -68.7000 215° Southwest 470 541 38,000  Level Gander Center
01:56PM 57.8000 -68.8667 217° Southwest 470 541 38,000  Level Gander Center
01:57PM 57.7000 -69.0000 215° Southwest 470 541 38,000  Level Gander Center
01:58PM 57.5833 -69.1333 212° Southwest 480 552 38,000  Level Gander Center
01:59PM 57.4667 -69.3000 218° Southwest 480 552 38,000  Level Gander Center
02:00PM 57.3667 -69.4333 216° Southwest 480 552 38,000  Level Gander Center
02:01PM 57.2500 -69.5667 212° Southwest 480 552 38,000  Level Gander Center
02:02PM 57.1667 -69.7333 227° Southwest 480 552 38,000  Level Gander Center
02:03PM 57.0500 -69.8500 209° Southwest 480 552 38,000  Level Gander Center
02:04PM 56.9500 -69.9833 216° Southwest 480 552 38,000  Level Gander Center
02:05PM 56.8333 -70.1500 218° Southwest 480 552 38,000  Level Gander Center
02:06PM 56.7167 -70.2667 209° Southwest 480 552 38,000  Level Gander Center
02:07PM 56.6167 -70.4000 216° Southwest 480 552 38,000  Level Gander Center
02:08PM 56.5167 -70.5333 216° Southwest 470 541 38,000  Level Gander Center
02:09PM 56.3833 -70.6833 212° Southwest 470 541 38,000  Level Gander Center
02:10PM 56.2833 -70.8000 213° Southwest 470 541 38,000  Level Gander Center
02:11PM 56.1667 -70.9333 212° Southwest 480 552 38,000  Level Gander Center
02:12PM 56.0500 -71.0833 216° Southwest 480 552 38,000  Level Gander Center
02:13PM 55.9667 -71.2167 222° Southwest 480 552 38,000  Level Gander Center
02:14PM 55.8500 -71.3333 209° Southwest 480 552 38,000  Level Gander Center
02:15PM 55.7500 -71.4500 213° Southwest 480 552 38,000  Level Gander Center
02:16PM 55.6333 -71.6000 216° Southwest 480 552 38,000  Level Gander Center
02:17PM 55.5167 -71.7167 210° Southwest 480 552 38,000  Level Gander Center
02:18PM 55.4000 -71.8500 213° Southwest 480 552 38,000  Level Gander Center
02:19PM 55.3000 -71.9833 217° Southwest 480 552 38,000  Level Gander Center
02:20PM 55.1833 -72.1000 210° Southwest 480 552 38,000  Level Gander Center
02:21PM 55.0667 -72.2500 216° Southwest 480 552 38,000  Level Gander Center
02:22PM 54.9500 -72.3667 210° Southwest 480 552 38,000  Level Gander Center
02:23PM 54.8500 -72.4833 214° Southwest 480 552 38,000  Level Gander Center
02:24PM 54.7333 -72.6333 217° Southwest 480 552 38,000  Level Gander Center
02:25PM 54.6167 -72.7500 210° Southwest 490 564 38,000  Level Gander Center
02:26PM 54.5000 -72.8833 214° Southwest 490 564 38,000  Level Gander Center
02:27PM 54.4000 -73.0000 214° Southwest 490 564 38,000  Level Gander Center
02:28PM 54.2833 -73.1167 210° Southwest 490 564 38,000  Level Gander Center
02:29PM 54.1667 -73.2500 214° Southwest 490 564 38,000  Level Gander Center
02:30PM 54.0500 -73.3667 210° Southwest 490 564 38,000  Level Gander Center
02:31PM 53.9333 -73.4833 210° Southwest 480 552 38,000  Level Gander Center
02:32PM 53.8333 -73.6167 218° Southwest 490 564 38,000  Level Gander Center
02:33PM 53.7167 -73.7500 214° Southwest 490 564 38,000  Level Gander Center
02:34PM 53.5833 -73.8333 200° South 490 564 38,000  Level Gander Center
02:35PM 53.4667 -73.9333 207° Southwest 490 564 38,000  Level Gander Center
02:36PM 53.3500 -74.0333 207° Southwest 490 564 38,000  Level Gander Center
02:37PM 53.2333 -74.1500 211° Southwest 490 564 38,000  Level Gander Center
02:38PM 53.1000 -74.2500 204° Southwest 490 564 38,000  Level Gander Center
02:39PM 52.9833 -74.3500 207° Southwest 490 564 38,000  Level Gander Center
02:40PM 52.8667 -74.4333 203° Southwest 490 564 38,000  Level Gander Center
02:41PM 52.7500 -74.5333 207° Southwest 490 564 38,000  Level Gander Center
02:42PM 52.6167 -74.6333 204° Southwest 490 564 38,000  Level Gander Center
02:43PM 52.5000 -74.7333 208° Southwest 490 564 38,000  Level Gander Center
02:44PM 52.3667 -74.8333 205° Southwest 490 564 38,000  Level Gander Center
02:45PM 52.2667 -74.9500 216° Southwest 490 564 38,000  Level Gander Center
02:46PM 52.1333 -75.0333 201° Southwest 490 564 38,000  Level Gander Center
02:47PM 52.0167 -75.1167 204° Southwest 490 564 38,000  Level Gander Center
02:48PM 51.8833 -75.2167 205° Southwest 480 552 38,000  Level Gander Center
02:49PM 51.7833 -75.3167 212° Southwest 480 552 38,000  Level Gander Center
02:50PM 51.6500 -75.4167 205° Southwest 480 552 38,000  Level Gander Center
02:51PM 51.5333 -75.4833 200° South 480 552 38,000  Level Gander Center
02:52PM 51.3667 -75.5667 197° South 470 541 38,000  Level Montreal Center
02:53PM 51.2500 -75.6667 208° Southwest 470 541 38,000  Level Montreal Center
02:54PM 51.1333 -75.7500 204° Southwest 470 541 38,000  Level Montreal Center
02:55PM 51.0167 -75.8333 204° Southwest 470 541 38,000  Level Montreal Center
02:56PM 50.9000 -75.9167 204° Southwest 470 541 38,000  Level Montreal Center
02:57PM 50.7833 -76.0167 208° Southwest 470 541 38,000  Level Montreal Center
02:58PM 50.6667 -76.1000 204° Southwest 470 541 38,000  Level Montreal Center
02:59PM 50.5500 -76.1833 204° Southwest 470 541 38,000  Level Montreal Center
03:00PM 50.4333 -76.2833 209° Southwest 470 541 38,000  Level Montreal Center
03:01PM 50.3167 -76.3667 205° Southwest 470 541 38,000  Level Montreal Center
03:02PM 50.1833 -76.4333 198° South 470 541 38,000  Level Montreal Center
03:03PM 50.0667 -76.5500 213° Southwest 470 541 38,000  Level Montreal Center
03:04PM 49.9333 -76.6167 198° South 470 541 38,000  Level Montreal Center
03:05PM 49.8167 -76.7000 205° Southwest 460 529 38,000  Level Montreal Center
03:06PM 49.7167 -76.7667 203° Southwest 460 529 38,000  Level Montreal Center
03:07PM 49.5833 -76.8667 206° Southwest 470 541 38,000  Level Montreal Center
03:08PM 49.4833 -76.9500 208° Southwest 450 518 38,000  Level Montreal Center
03:09PM 49.3500 -77.0167 198° South 470 541 38,000  Level Montreal Center
03:10PM 49.2500 -77.1000 209° Southwest 440 506 38,000  Level Montreal Center
03:11PM 49.1333 -77.1667 201° Southwest 450 518 38,000  Level Montreal Center
03:12PM 49.0333 -77.2500 209° Southwest 450 518 38,000  Level Montreal Center
03:13PM 48.8833 -77.3500 204° Southwest 440 506 38,000  Level Montreal Center
03:14PM 48.7833 -77.4167 204° Southwest 440 506 38,000  Level Montreal Center
03:15PM 48.6667 -77.5000 205° Southwest 440 506 38,000  Level Montreal Center
03:20PM 48.0860 -77.8740 205° Southwest 38,000  Level FlightAware
03:21PM 48.0180 -77.9130 201° Southwest 438 504 38,000  Level FlightAware
03:21PM 47.9520 -77.9520 202° Southwest 437 503 38,000  Level FlightAware
03:22PM 47.8860 -77.9900 201° Southwest 437 503 38,000  Level FlightAware
03:23PM 47.8150 -78.0310 201° Southwest 437 503 38,000  Level FlightAware
03:23PM 47.7310 -78.0800 201° Southwest 436 502 38,000  Level FlightAware
03:24PM 47.6690 -78.1160 201° Southwest 436 502 38,000  Level FlightAware
03:24PM 47.6030 -78.1540 201° Southwest 436 502 38,000  Level FlightAware
03:25PM 47.5380 -78.1910 201° Southwest 435 501 38,000  Level FlightAware
03:26PM 47.4780 -78.2260 202° Southwest 435 501 38,000  Level FlightAware
03:26PM 47.4040 -78.2680 201° Southwest 433 498 38,000  Level FlightAware
03:27PM 47.3420 -78.3040 201° Southwest 431 496 38,000  Level FlightAware
03:27PM 47.2740 -78.3420 201° Southwest 429 494 38,000  Level FlightAware
03:28PM 47.2120 -78.3770 201° Southwest 428 493 38,000  Level FlightAware
03:28PM 47.1480 -78.4140 201° Southwest 429 494 38,000  Level FlightAware
03:29PM 47.0880 -78.4470 201° Southwest 429 494 38,000  Level FlightAware
03:30PM 47.0170 -78.4870 201° Southwest 429 494 38,000  Level FlightAware
03:30PM 46.9540 -78.5230 201° Southwest 430 495 38,000  Level FlightAware
03:31PM 46.8890 -78.5590 201° Southwest 432 497 38,000  Level FlightAware
03:31PM 46.8200 -78.5980 201° Southwest 432 497 38,000  Level FlightAware
03:32PM 46.7570 -78.6330 201° Southwest 433 498 38,000  Level FlightAware
03:33PM 46.6930 -78.6690 201° Southwest 433 498 38,000  Level FlightAware
03:33PM 46.6250 -78.7060 200° South 430 495 38,000  Level FlightAware
03:34PM 46.5620 -78.7410 201° Southwest 424 488 38,000  Level FlightAware
03:34PM 46.4970 -78.7770 201° Southwest 418 481 38,000  Level FlightAware
03:35PM 46.4330 -78.8120 201° Southwest 417 480 38,000  Level FlightAware
03:35PM 46.3710 -78.8460 201° Southwest 418 481 38,000  Level FlightAware
03:36PM 46.3090 -78.8800 201° Southwest 420 483 38,000  Level FlightAware
03:37PM 46.2470 -78.9140 201° Southwest 423 487 38,000  Level FlightAware
03:37PM 46.1810 -78.9500 201° Southwest 426 490 38,000  Level FlightAware
03:38PM 46.1100 -78.9880 200° South 426 490 38,000  Level FlightAware
03:38PM 46.0530 -79.0190 201° Southwest 427 491 38,000  Level FlightAware
03:39PM 45.9810 -79.0580 201° Southwest 429 494 38,000  Level FlightAware
03:40PM 45.9220 -79.0890 200° South 426 490 38,000  Level FlightAware
03:40PM 45.8560 -79.1250 201° Southwest 423 487 38,000  Level FlightAware
03:41PM 45.8000 -79.1550 200° South 421 484 38,000  Level FlightAware
03:41PM 45.7280 -79.1940 201° Southwest 422 486 38,000  Level FlightAware
03:42PM 45.6670 -79.2260 200° South 423 487 38,000  Level FlightAware
03:43PM 45.5960 -79.2640 201° Southwest 424 488 38,000  Level FlightAware
03:43PM 45.5360 -79.2960 200° South 429 494 38,000  Level FlightAware
03:44PM 45.4770 -79.3270 200° South 433 498 38,000  Level FlightAware
03:44PM 45.4210 -79.3570 201° Southwest 437 503 38,000  Level FlightAware
03:45PM 45.3570 -79.3910 200° South 439 505 38,000  Level FlightAware
03:45PM 45.2880 -79.4270 200° South 437 503 38,000  Level FlightAware
03:46PM 45.2260 -79.4590 200° South 435 501 38,000  Level FlightAware
03:46PM 45.1580 -79.4950 200° South 434 499 38,000  Level FlightAware
03:47PM 45.0870 -79.5320 200° South 433 498 38,000  Level FlightAware
03:48PM 45.0270 -79.5640 201° Southwest 433 498 38,000  Level FlightAware
03:48PM 44.9550 -79.6010 200° South 434 499 38,000  Level FlightAware
03:49PM 44.8960 -79.6320 200° South 435 501 38,000  Level FlightAware
03:49PM 44.8200 -79.6710 200° South 430 495 38,000  Level FlightAware
03:50PM 44.7570 -79.7030 200° South 428 493 38,000  Level FlightAware
03:51PM 44.6960 -79.7350 200° South 426 490 38,000  Level FlightAware
03:51PM 44.6330 -79.7670 200° South 425 489 38,000  Level FlightAware
03:52PM 44.5650 -79.8100 204° Southwest 421 484 38,000  Level FlightAware
03:52PM 44.5080 -79.8590 212° Southwest 421 484 38,000  Level FlightAware
03:53PM 44.4480 -79.9140 213° Southwest 418 481 38,000  Level FlightAware
03:53PM 44.4010 -79.9570 213° Southwest 418 481 38,000  Level FlightAware
03:54PM 44.3410 -80.0110 213° Southwest 417 480 38,000  Level FlightAware
03:55PM 44.2850 -80.0610 213° Southwest 415 478 38,000  Level FlightAware
03:55PM 44.2290 -80.1110 213° Southwest 413 475 38,000  Level FlightAware
03:56PM 44.1650 -80.1680 213° Southwest 410 472 38,000  Level FlightAware
03:56PM 44.1140 -80.2130 212° Southwest 406 467 38,000  Level FlightAware
03:57PM 44.0590 -80.2620 213° Southwest 403 464 38,000  Level FlightAware
03:58PM 44.0030 -80.3110 212° Southwest 400 460 38,000  Level FlightAware
03:58PM 43.9500 -80.3580 213° Southwest 399 459 38,000  Level FlightAware
03:59PM 43.9080 -80.3960 213° Southwest 400 460 38,000  Level FlightAware
03:59PM 43.8510 -80.4450 212° Southwest 401 461 38,000  Level FlightAware
04:00PM 43.7940 -80.4960 213° Southwest 401 461 38,000  Level FlightAware
04:00PM 43.7460 -80.5380 212° Southwest 403 464 38,000  Level FlightAware
04:01PM 43.6880 -80.5890 212° Southwest 408 470 38,000  Level FlightAware
04:02PM 43.6260 -80.6420 212° Southwest 408 470 38,000  Level FlightAware
04:02PM 43.5800 -80.6830 213° Southwest 408 470 38,000  Level FlightAware
04:03PM 43.5190 -80.7350 212° Southwest 403 464 38,000  Level FlightAware
04:03PM 43.4620 -80.7850 212° Southwest 396 456 38,000  Level FlightAware
04:04PM 43.4070 -80.8320 212° Southwest 392 451 38,000  Level FlightAware
04:04PM 43.3560 -80.8770 213° Southwest 391 450 38,000  Level FlightAware
04:05PM 43.3020 -80.9230 212° Southwest 390 449 38,000  Level FlightAware
04:06PM 43.2460 -80.9710 212° Southwest 390 449 38,000  Level FlightAware
04:06PM 43.1950 -81.0150 212° Southwest 394 453 38,000  Level FlightAware
04:07PM 43.1410 -81.0610 212° Southwest 394 453 38,000  Level FlightAware
04:07PM 43.0810 -81.1120 212° Southwest 397 457 38,000  Level FlightAware
04:08PM 43.0340 -81.1500 211° Southwest 401 461 38,000  Level FlightAware
04:08PM 42.9860 -81.1800 205° Southwest 403 464 38,000  Level FlightAware
04:09PM 42.9220 -81.2200 205° Southwest 400 460 38,000  Level FlightAware
04:10PM 42.8650 -81.2560 205° Southwest 401 461 38,000  Level FlightAware
04:10PM 42.8060 -81.2920 204° Southwest 404 465 38,000  Level FlightAware
04:11PM 42.7480 -81.3280 205° Southwest 404 465 38,000  Level FlightAware
04:12PM 42.6660 -81.3780 204° Southwest 403 464 38,000  Level FlightAware
04:12PM 42.6080 -81.4140 205° Southwest 401 461 38,000  Level FlightAware
04:13PM 42.5460 -81.4520 204° Southwest 399 459 38,000  Level FlightAware
04:13PM 42.4880 -81.4870 204° Southwest 399 459 38,000  Level FlightAware
04:14PM 42.4290 -81.5230 204° Southwest 400 460 38,000  Level FlightAware
04:14PM 42.3690 -81.5590 204° Southwest 399 459 38,000  Level FlightAware
04:15PM 42.3080 -81.5960 204° Southwest 398 458 38,000  Level FlightAware
04:16PM 42.2540 -81.6290 204° Southwest 397 457 38,000  Level FlightAware
04:16PM 42.1920 -81.6660 204° Southwest 398 458 38,000  Level FlightAware
04:17PM 42.1310 -81.7030 204° Southwest 399 459 38,000  Level FlightAware
04:17PM 42.0690 -81.7410 204° Southwest 404 465 38,000  Level FlightAware
04:18PM 42.0150 -81.7730 204° Southwest 402 463 38,000  Level FlightAware
04:19PM 41.9590 -81.8070 204° Southwest 402 463 38,000  Level FlightAware
04:19PM 41.8980 -81.8430 204° Southwest 405 466 38,000  Level FlightAware
04:20PM 41.8430 -81.8760 204° Southwest 406 467 38,000  Level FlightAware
04:20PM 41.7670 -81.9210 204° Southwest 404 465 38,000  Level FlightAware
04:21PM 41.7020 -81.9590 204° Southwest 405 466 38,000  Level FlightAware
04:21PM 41.6620 -81.9830 204° Southwest 407 468 38,000  Level FlightAware
04:22PM 41.5830 -82.0300 204° Southwest 406 467 38,000  Level FlightAware
04:23PM 41.5100 -82.0730 204° Southwest 404 465 38,000  Level FlightAware
04:23PM 41.4490 -82.1090 204° Southwest 402 463 38,000  Level FlightAware
04:24PM 41.3930 -82.1420 204° Southwest 404 465 38,000  Level FlightAware
04:25PM 41.3370 -82.1690 200° South 410 472 38,000  Level FlightAware
04:25PM 41.2560 -82.1980 195° South 412 474 38,000  Level FlightAware
04:26PM 41.1860 -82.2240 196° South 410 472 38,000  Level FlightAware
04:26PM 41.1250 -82.2460 195° South 409 471 38,000  Level FlightAware
04:27PM 41.0590 -82.2690 195° South 411 473 38,000  Level FlightAware
04:28PM 40.9930 -82.2930 195° South 411 473 38,000  Level FlightAware
04:28PM 40.9290 -82.3150 195° South 411 473 38,000  Level FlightAware
04:29PM 40.8640 -82.3390 196° South 410 472 38,000  Level FlightAware
04:29PM 40.8070 -82.3590 195° South 408 470 38,000  Level FlightAware
04:30PM 40.7400 -82.3820 195° South 408 470 38,000  Level FlightAware
04:31PM 40.6720 -82.4070 196° South 406 467 38,000  Level FlightAware
04:31PM 40.6140 -82.4270 195° South 405 466 38,000  Level FlightAware
04:32PM 40.5550 -82.4480 195° South 404 465 38,000  Level FlightAware
04:32PM 40.4820 -82.4730 195° South 403 464 38,000  Level FlightAware
04:33PM 40.4190 -82.4950 195° South 405 466 38,000  Level FlightAware
04:33PM 40.3590 -82.5160 195° South 406 467 38,000  Level FlightAware
04:34PM 40.2900 -82.5400 195° South 407 468 38,000  Level FlightAware
04:35PM 40.2330 -82.5600 195° South 405 466 38,000  Level FlightAware
04:35PM 40.1630 -82.5820 194° South 412 474 38,000  Level FlightAware
04:36PM 40.1030 -82.5910 187° South 425 489 38,000  Level FlightAware
04:36PM 40.0320 -82.5960 183° South 426 490 38,000  Level FlightAware
04:37PM 39.9590 -82.6010 183° South 427 491 38,000  Level FlightAware
04:38PM 39.8890 -82.6060 183° South 427 491 38,000  Level FlightAware
04:38PM 39.8240 -82.6110 183° South 424 488 38,000  Level FlightAware
04:39PM 39.7550 -82.6150 183° South 422 486 38,000  Level FlightAware
04:39PM 39.6830 -82.6200 183° South 421 484 38,000  Level FlightAware
04:40PM 39.6140 -82.6250 183° South 421 484 38,000  Level FlightAware
04:40PM 39.5530 -82.6290 183° South 421 484 38,000  Level FlightAware
04:41PM 39.4820 -82.6340 183° South 420 483 38,000  Level FlightAware
04:42PM 39.4110 -82.6380 182° South 420 483 38,000  Level FlightAware
04:42PM 39.3500 -82.6420 183° South 421 484 38,000  Level FlightAware
04:43PM 39.2770 -82.6470 183° South 422 486 38,000  Level FlightAware
04:43PM 39.2090 -82.6520 183° South 422 486 38,000  Level FlightAware
04:44PM 39.1390 -82.6560 183° South 423 487 38,000  Level FlightAware
04:45PM 39.0730 -82.6610 183° South 423 487 38,000  Level FlightAware
04:45PM 39.0050 -82.6650 183° South 423 487 38,000  Level FlightAware
04:46PM 38.9380 -82.6700 183° South 423 487 38,000  Level FlightAware
04:46PM 38.8650 -82.6750 183° South 422 486 38,000  Level FlightAware
04:47PM 38.8000 -82.6790 183° South 422 486 38,000  Level FlightAware
04:47PM 38.7330 -82.6830 183° South 423 487 38,000  Level FlightAware
04:48PM 38.6690 -82.6880 183° South 422 486 38,000  Level FlightAware
04:49PM 38.6040 -82.6920 183° South 420 483 38,000  Level FlightAware
04:49PM 38.5290 -82.6970 183° South 421 484 38,000  Level FlightAware
04:50PM 38.4660 -82.7010 183° South 420 483 38,000  Level FlightAware
04:50PM 38.3870 -82.7060 183° South 422 486 38,000  Level FlightAware
04:51PM 38.3240 -82.7100 183° South 423 487 38,000  Level FlightAware
04:52PM 38.2560 -82.7140 183° South 422 486 38,000  Level FlightAware
04:52PM 38.1850 -82.7190 183° South 420 483 38,000  Level FlightAware
04:53PM 38.1321 -82.7224 183° South 422 486 38,000  Level FlightAware ADS-B
04:53PM 38.0554 -82.7273 183° South 423 487 38,000  Level FlightAware ADS-B
04:54PM 37.9700 -82.7328 183° South 425 489 38,000  Level FlightAware ADS-B
04:55PM 37.9090 -82.7370 183° South 427 491 38,000  Level FlightAware
04:55PM 37.8425 -82.7410 183° South 427 491 38,000  Level FlightAware ADS-B
04:56PM 37.7811 -82.7450 183° South 424 488 38,000  Level FlightAware ADS-B
04:56PM 37.7503 -82.7489 186° South 418 481 38,000  Level FlightAware ADS-B
04:57PM 37.6500 -82.7770 193° South 402 463 38,000  Level FlightAware
04:57PM 37.6139 -82.7948 201° Southwest 408 470 38,000  Level FlightAware ADS-B
04:58PM 37.5724 -82.8205 206° Southwest 391 450 38,000  Level FlightAware ADS-B
04:58PM 37.5093 -82.8626 208° Southwest 392 451 38,000  Level FlightAware ADS-B
04:59PM 37.4559 -82.8978 208° Southwest 392 451 38,000  Level FlightAware ADS-B
04:59PM 37.4063 -82.9304 208° Southwest 391 450 38,000  Level FlightAware ADS-B
05:00PM 37.3534 -82.9650 207° Southwest 390 449 38,000  Level FlightAware ADS-B
05:00PM 37.3026 -82.9983 208° Southwest 390 449 38,000  Level FlightAware ADS-B
05:01PM 37.2520 -83.0314 208° Southwest 388 447 38,000  Level FlightAware ADS-B
05:01PM 37.2025 -83.0638 208° Southwest 388 447 38,000  Level FlightAware ADS-B
05:02PM 37.1543 -83.0952 207° Southwest 387 445 38,000  Level FlightAware ADS-B
05:02PM 37.1042 -83.1279 208° Southwest 388 447 38,000  Level FlightAware ADS-B
05:03PM 37.0536 -83.1608 207° Southwest 389 448 38,000  Level FlightAware ADS-B
05:03PM 37.0018 -83.1944 207° Southwest 390 449 38,000  Level FlightAware ADS-B
05:04PM 36.9523 -83.2265 207° Southwest 389 448 38,000  Level FlightAware ADS-B
05:04PM 36.9040 -83.2578 207° Southwest 389 448 38,000  Level FlightAware ADS-B
05:05PM 36.8559 -83.2889 207° Southwest 390 449 38,000  Level FlightAware ADS-B
05:06PM 36.8062 -83.3209 207° Southwest 387 445 38,000  Level FlightAware ADS-B
05:06PM 36.7571 -83.3525 207° Southwest 386 444 38,000  Level FlightAware ADS-B
05:07PM 36.7067 -83.3851 207° Southwest 386 444 38,000  Level FlightAware ADS-B
05:07PM 36.6582 -83.4162 207° Southwest 387 445 38,000  Level FlightAware ADS-B
05:08PM 36.6103 -83.4469 207° Southwest 388 447 38,000  Level FlightAware ADS-B
05:08PM 36.5609 -83.4786 207° Southwest 388 447 38,000  Level FlightAware ADS-B
05:09PM 36.5105 -83.5108 207° Southwest 388 447 38,000  Level FlightAware ADS-B
05:09PM 36.4617 -83.5420 207° Southwest 390 449 38,000  Level FlightAware ADS-B
05:10PM 36.4123 -83.5736 207° Southwest 392 451 38,000  Level FlightAware ADS-B
05:10PM 36.3626 -83.6053 207° Southwest 394 453 38,000  Level FlightAware ADS-B
05:11PM 36.3135 -83.6365 207° Southwest 395 455 38,000  Level FlightAware ADS-B
05:11PM 36.2619 -83.6693 207° Southwest 394 453 38,000  Level FlightAware ADS-B
05:12PM 36.2121 -83.7009 207° Southwest 394 453 38,000  Level FlightAware ADS-B
05:12PM 36.1629 -83.7320 207° Southwest 394 453 38,000  Level FlightAware ADS-B
05:13PM 36.1137 -83.7632 207° Southwest 396 456 38,000  Level FlightAware ADS-B
05:13PM 36.0640 -83.7945 207° Southwest 396 456 38,000  Level FlightAware ADS-B
05:14PM 36.0138 -83.8263 207° Southwest 398 458 38,000  Level FlightAware ADS-B
05:14PM 35.9622 -83.8588 207° Southwest 401 461 38,000  Level FlightAware ADS-B
05:15PM 35.9140 -83.8842 203° Southwest 409 471 38,000  Level FlightAware ADS-B
05:15PM 35.8634 -83.9029 197° South 415 478 38,000  Level FlightAware ADS-B
05:16PM 35.8054 -83.9175 192° South 419 482 38,000  Level FlightAware ADS-B
05:16PM 35.7444 -83.9332 192° South 418 481 38,000  Level FlightAware ADS-B
05:17PM 35.6875 -83.9476 192° South 417 480 38,000  Level FlightAware ADS-B
05:17PM 35.6210 -83.9638 191° South 417 480 38,000  Level FlightAware ADS-B
05:18PM 35.5505 -83.9809 191° South 418 481 38,000  Level FlightAware ADS-B
05:18PM 35.4897 -83.9956 191° South 419 482 38,000  Level FlightAware ADS-B
05:19PM 35.4236 -84.0115 191° South 419 482 38,000  Level FlightAware ADS-B
05:20PM 35.3639 -84.0259 191° South 420 483 38,000  Level FlightAware ADS-B
05:21PM 35.2551 -84.0521 191° South 421 484 38,000  Level FlightAware ADS-B
05:21PM 35.1975 -84.0660 191° South 423 487 38,000  Level FlightAware ADS-B
05:22PM 35.1440 -84.0790 191° South 424 488 38,000  Level FlightAware
05:22PM 35.1138 -84.0860 191° South 424 488 38,000  Level FlightAware ADS-B
05:22PM 35.0527 -84.1006 191° South 424 488 38,000  Level FlightAware ADS-B
05:23PM 34.9910 -84.1154 191° South 425 489 38,000  Level FlightAware ADS-B
05:24PM 34.8904 -84.1394 191° South 426 490 38,000  Level FlightAware ADS-B
05:24PM 34.8316 -84.1534 191° South 427 491 38,000  Level FlightAware ADS-B
05:25PM 34.7725 -84.1674 191° South 426 490 38,000  Level FlightAware ADS-B
05:25PM 34.7139 -84.1813 191° South 426 490 38,000  Level FlightAware ADS-B
05:26PM 34.6490 -84.1970 191° South 424 488 38,000  Level FlightAware
05:26PM 34.5648 -84.2165 191° South 425 489 38,000  Level FlightAware ADS-B
05:27PM 34.4986 -84.2321 191° South 426 490 38,000  Level FlightAware ADS-B
05:28PM 34.4396 -84.2460 191° South 427 491 38,000  Level FlightAware ADS-B
05:28PM 34.3808 -84.2599 191° South 427 491 38,000  Level FlightAware ADS-B
05:29PM 34.3162 -84.2751 191° South 428 493 38,000  Level FlightAware ADS-B
05:29PM 34.2523 -84.2901 191° South 429 494 38,000  Level FlightAware ADS-B
05:30PM 34.1730 -84.3090 191° South 430 495 38,000  Level FlightAware
05:31PM 34.0900 -84.3280 191° South 432 497 38,000  Level FlightAware
05:31PM 34.0120 -84.3460 191° South 434 499 38,000  Level FlightAware
05:32PM 33.9450 -84.3620 191° South 427 491 38,000  Level FlightAware
05:32PM 33.9013 -84.3720 191° South 436 502 38,000  Level FlightAware ADS-B
05:33PM 33.8407 -84.3860 191° South 437 503 38,000  Level FlightAware ADS-B
05:33PM 33.7782 -84.4006 191° South 440 506 38,000  Level FlightAware ADS-B
05:34PM 33.7092 -84.4165 191° South 439 505 38,000  Level FlightAware ADS-B
05:34PM 33.6452 -84.4294 190° South 443 510 38,000  Level FlightAware ADS-B
05:35PM 33.5559 -84.4330 182° South 455 524 38,000  Level FlightAware ADS-B
05:36PM 33.4892 -84.4317 179° South 456 525 38,000  Level FlightAware ADS-B
05:36PM 33.4014 -84.4304 179° South 456 525 38,000  Level FlightAware ADS-B
05:37PM 33.2831 -84.4280 179° South 458 527 38,000  Level FlightAware ADS-B
05:38PM 33.2180 -84.4270 179° South 457 526 38,000  Level FlightAware
05:38PM 33.1923 -84.4262 179° South 457 526 38,000  Level FlightAware ADS-B
05:39PM 33.0740 -84.4240 179° South 455 524 38,000  Level FlightAware
05:39PM 33.0000 -84.4220 179° South 456 525 38,000  Level FlightAware
05:40PM 32.9210 -84.4210 179° South 457 526 38,000  Level FlightAware
05:41PM 32.8510 -84.4190 179° South 458 527 38,000  Level FlightAware
05:41PM 32.7600 -84.4160 178° South 458 527 38,000 60 Level FlightAware
05:42PM 32.6550 -84.4150 180° South 459 528 38,100 180 Climbing FlightAware
05:43PM 32.5660 -84.4130 179° South 460 529 38,300 180 Climbing FlightAware
05:43PM 32.4930 -84.4120 179° South 462 532 38,400 240 Climbing FlightAware
05:44PM 32.4230 -84.4110 179° South 467 537 38,600 360 Climbing FlightAware
05:44PM 32.3550 -84.4090 179° South 468 539 38,800 240 Climbing FlightAware
05:45PM 32.2320 -84.4070 179° South 466 536 39,000 60 Climbing FlightAware
05:46PM 32.1300 -84.4050 179° South 463 533 39,000  Level FlightAware
05:47PM 32.0480 -84.4030 179° South 462 532 39,000  Level FlightAware
05:47PM 31.9580 -84.4010 179° South 460 529 39,000  Level FlightAware
05:48PM 31.8950 -84.4000 179° South 458 527 39,000  Level FlightAware
05:49PM 31.8190 -84.3990 179° South 457 526 39,000  Level FlightAware
05:49PM 31.7400 -84.3970 179° South 458 527 39,000  Level FlightAware
05:50PM 31.6470 -84.3950 179° South 459 528 39,000  Level FlightAware
05:50PM 31.5890 -84.3860 172° South 473 544 39,000  Level FlightAware
05:51PM 31.5230 -84.3560 159° South 479 551 39,000  Level FlightAware
05:52PM 31.4500 -84.3230 159° South 480 552 39,000  Level FlightAware
05:52PM 31.3710 -84.2860 158° South 480 552 39,000  Level FlightAware
05:53PM 31.3040 -84.2560 159° South 480 552 39,000  Level FlightAware
05:53PM 31.2250 -84.2200 159° South 481 554 39,000  Level FlightAware
05:54PM 31.1530 -84.1880 159° South 480 552 39,000  Level FlightAware
05:55PM 31.0780 -84.1540 159° South 478 550 39,000  Level FlightAware
05:55PM 31.0408 -84.1374 159° South 479 551 39,000  Level FlightAware ADS-B (KTLH)
05:56PM 30.9537 -84.0987 159° South 479 551 39,000  Level FlightAware ADS-B (KTLH)
05:56PM 30.8923 -84.0714 159° South 480 552 39,000  Level FlightAware ADS-B (KTLH)
05:57PM 30.8243 -84.0412 159° South 479 551 39,000  Level FlightAware ADS-B (KTLH)
05:57PM 30.7740 -84.0190 159° South 478 550 39,000  Level FlightAware ADS-B (KTLH)
05:58PM 30.6999 -83.9862 159° South 479 551 39,000  Level FlightAware ADS-B (KTLH)
05:58PM 30.6186 -83.9503 159° South 480 552 39,000  Level FlightAware ADS-B (KTLH)
05:59PM 30.5320 -83.9121 159° South 483 556 39,000  Level FlightAware ADS-B (KTLH)
05:59PM 30.4722 -83.8858 159° South 484 557 39,000  Level FlightAware ADS-B (KTLH)
06:00PM 30.4083 -83.8577 159° South 484 557 39,000  Level FlightAware ADS-B (KTLH)
06:01PM 30.3265 -83.8217 159° South 473 544 39,000  Level FlightAware ADS-B (KTLH)
06:01PM 30.2673 -83.7957 159° South 464 534 39,000  Level FlightAware ADS-B (KTLH)
06:02PM 30.1867 -83.7605 159° South 461 531 39,000  Level FlightAware ADS-B (KTLH)
06:02PM 30.1283 -83.7351 159° South 460 529 39,000  Level FlightAware ADS-B (KTLH)
06:03PM 30.0673 -83.7085 159° South 461 531 39,000  Level FlightAware ADS-B (KTLH)
06:03PM 30.0050 -83.6820 160° South 461 531 39,000  Level FlightAware
06:04PM 29.9400 -83.6530 159° South 462 532 39,000  Level FlightAware
06:04PM 29.8630 -83.6190 159° South 460 529 39,000  Level FlightAware
06:05PM 29.8153 -83.5989 160° South 461 531 39,000  Level FlightAware ADS-B (KTLH)
06:06PM 29.7280 -83.5610 159° South 459 528 39,000  Level FlightAware
06:06PM 29.6600 -83.5320 160° South 459 528 39,000  Level FlightAware
06:07PM 29.5860 -83.5000 159° South 458 527 39,000  Level FlightAware
06:07PM 29.5150 -83.4690 159° South 459 528 39,000  Level FlightAware
06:08PM 29.4510 -83.4420 160° South 459 528 39,000  Level FlightAware
06:09PM 29.3750 -83.4090 159° South 459 528 39,000  Level FlightAware
06:09PM 29.3050 -83.3790 160° South 459 528 39,000  Level FlightAware
06:10PM 29.2220 -83.3430 159° South 458 527 39,000  Level FlightAware
06:10PM 29.1520 -83.3130 159° South 457 526 39,000  Level FlightAware
06:11PM 29.0910 -83.2870 160° South 455 524 39,000  Level FlightAware
06:12PM 29.0180 -83.2560 160° South 455 524 39,000  Level FlightAware
06:12PM 28.9510 -83.2270 159° South 454 522 39,000  Level FlightAware
06:13PM 28.8780 -83.1960 160° South 455 524 39,000  Level FlightAware
06:13PM 28.8060 -83.1660 160° South 455 524 39,000  Level FlightAware
06:14PM 28.7490 -83.1410 159° South 455 524 39,000  Level FlightAware
06:14PM 28.6710 -83.1090 160° South 456 525 39,000  Level FlightAware
06:15PM 28.5980 -83.0780 160° South 457 526 39,000  Level FlightAware
06:16PM 28.5380 -83.0520 159° South 457 526 39,000  Level FlightAware
06:16PM 28.4610 -83.0200 160° South 458 527 39,000  Level FlightAware
06:17PM 28.3860 -82.9880 159° South 459 528 39,000  Level FlightAware
06:17PM 28.3260 -82.9630 160° South 460 529 39,000  Level FlightAware
06:18PM 28.2480 -82.9300 160° South 461 531 39,000  Level FlightAware
06:19PM 28.1740 -82.8990 160° South 461 531 39,000  Level FlightAware
06:19PM 28.1090 -82.8720 160° South 460 529 39,000  Level FlightAware
06:20PM 28.0400 -82.8430 160° South 459 528 39,000  Level FlightAware
06:20PM 27.9660 -82.8120 160° South 458 527 39,000  Level FlightAware
06:21PM 27.9010 -82.7850 160° South 458 527 39,000  Level FlightAware
06:21PM 27.8340 -82.7570 160° South 459 528 39,000  Level FlightAware
06:22PM 27.7640 -82.7280 160° South 460 529 39,000  Level FlightAware
06:23PM 27.6890 -82.6980 160° South 459 528 39,000  Level FlightAware
06:23PM 27.6430 -82.6910 172° South 453 521 39,000  Level FlightAware
06:24PM 27.5780 -82.6890 178° South 454 522 39,000  Level FlightAware
06:24PM 27.5020 -82.6850 177° South 455 524 39,000  Level FlightAware
06:25PM 27.4220 -82.6810 177° South 456 525 39,000  Level FlightAware
06:25PM 27.3470 -82.6770 177° South 455 524 39,000  Level FlightAware
06:26PM 27.2780 -82.6740 178° South 455 524 39,000  Level FlightAware
06:26PM 27.2130 -82.6710 178° South 455 524 39,000  Level FlightAware
06:27PM 27.1340 -82.6670 177° South 454 522 39,000  Level FlightAware
06:28PM 27.0420 -82.6630 178° South 453 521 39,000  Level FlightAware
06:28PM 26.9670 -82.6590 177° South 452 520 39,000  Level FlightAware
06:29PM 26.8960 -82.6560 178° South 451 519 39,000  Level FlightAware
06:29PM 26.8230 -82.6520 177° South 451 519 39,000  Level FlightAware
06:30PM 26.7540 -82.6490 178° South 451 519 39,000  Level FlightAware
06:31PM 26.6750 -82.6450 177° South 453 521 39,000  Level FlightAware
06:31PM 26.6160 -82.6420 177° South 454 522 39,000  Level FlightAware
06:32PM 26.5340 -82.6380 178° South 454 522 39,000  Level FlightAware
06:32PM 26.4600 -82.6350 178° South 454 522 39,000  Level FlightAware
06:33PM 26.3810 -82.6310 177° South 454 522 39,000  Level FlightAware
06:34PM 26.2890 -82.6270 178° South 453 521 39,000  Level FlightAware
06:34PM 26.2140 -82.6230 177° South 453 521 39,000  Level FlightAware
06:35PM 26.1410 -82.6190 177° South 453 521 39,000  Level FlightAware
06:36PM 26.0570 -82.6150 178° South 454 522 39,000  Level FlightAware
06:36PM 25.9840 -82.6120 178° South 447 514 39,000  Level FlightAware
06:37PM 25.9160 -82.6080 177° South 447 514 39,000  Level FlightAware
06:38PM 25.7980 -82.6030 178° South 447 514 39,000  Level FlightAware
06:38PM 25.6900 -82.5980 178° South 447 514 39,000  Level FlightAware
06:39PM 25.6140 -82.5940 177° South 448 516 39,000  Level FlightAware
06:40PM 25.5410 -82.5910 178° South 449 517 39,000 -420 Level FlightAware
06:40PM 25.4550 -82.5870 178° South 452 520 38,500 -780 Descending FlightAware
06:41PM 25.3800 -82.5830 177° South 452 520 38,000 -1,020 Descending FlightAware
06:41PM 25.3170 -82.5800 178° South 453 521 37,400 -1,800 Descending FlightAware
06:42PM 25.2290 -82.5760 178° South 452 520 35,900 -2,160 Descending FlightAware
06:43PM 25.1560 -82.5730 178° South 450 518 34,700 -1,920 Descending FlightAware
06:43PM 25.0870 -82.5690 177° South 452 520 33,700 -1,800 Descending FlightAware
06:44PM 25.0080 -82.5660 178° South 437 503 32,600 -1,800 Descending FlightAware
06:44PM 24.9400 -82.5630 178° South 432 497 31,600 -1,680 Descending FlightAware
06:45PM 24.8700 -82.5590 177° South 436 502 30,600 -1,860 Descending FlightAware
06:46PM 24.7960 -82.5560 178° South 431 496 29,500 -1,320 Descending FlightAware
06:46PM 24.7190 -82.5520 177° South 421 484 28,900 -480 Descending FlightAware
06:47PM 24.6620 -82.5480 176° South 421 484 28,900  Level FlightAware
06:48PM 24.6000 -82.5450 177° South 421 484 28,900  Level FlightAware
06:48PM 24.5400 -82.5410 177° South 421 484 28,900  Level FlightAware
06:49PM 24.4790 -82.5380 177° South 421 484 28,900  Level FlightAware
06:49PM 24.4190 -82.5340 177° South 421 484 28,900 -4,740 Level FlightAware
06:50PM 24.2731 -82.5331 177° South 416 479 22,000 -4,020 Descending Miami Center
06:51PM 24.1669 -82.5283 178° South 404 465 21,500 -1,380 Descending Miami Center
06:52PM 24.0667 -82.5261 179° South 380 437 19,300 -2,220 Descending Miami Center
06:53PM 23.9625 -82.5236 179° South 380 437 17,100 -2,220 Descending Miami Center
06:55PM 23.8173 -82.4937 169° South  Level FlightAware Approximate
07:02PM 23.0063 -82.4000 180° South  Level FlightAware Approximate
07:03PM 22.9891 -82.4091 180° South  Level Estimated
07:04PM 22.9891 -82.4091 180° South  Level Estimated
07:05PM 22.9891 -82.4091 180° South  Level Estimated
07:06PM 22.9891 -82.4091 180° South  Level Estimated
07:07PM 22.9891 -82.4091 180° South  Level Estimated
07:08PM 22.9891 -82.4091 180° South  Level Estimated
07:09PM 22.9891 -82.4091 180° South  Level Estimated
07:10PM 22.9891 -82.4091 180° South  Level Estimated
07:11PM 22.9891 -82.4091 180° South  Level Estimated
07:12PM 22.9891 -82.4091 180° South  Level Estimated
07:13PM 22.9891 -82.4091 180° South  Level Estimated
07:14PM 22.9891 -82.4091 180° South  Level Estimated
07:15PM 22.9891 -82.4091 180° South  Level Estimated
07:16PM 22.9891 -82.4091 180° South  Level Estimated
07:17PM 22.9891 -82.4091 180° South  Level Estimated
07:18PM 22.9891 -82.4091 180° South  Level Estimated
07:19PM 22.9891 -82.4091 180° South  Level Estimated
07:20PM 22.9891 -82.4091 180° South  Level Estimated
07:21PM 22.9891 -82.4091 180° South  Level Estimated
07:22PM 22.9891 -82.4091 180° South  Level Estimated
07:23PM 22.9891 -82.4091 180° South  Level Estimated
07:24PM 22.9891 -82.4091 180° South  Level Estimated